Observation data for Canadian on 01/20/2019      Previous  Date  Next       Current Mesonet Observations  Soil Data  Daily Summary Page  Observations in Plain Language
KCA1 200600Z 12003KT M06/M08 A3026 RMK A01 T10621080  RH  087%=      5-min Rain = 0
KCA1 200601Z 13003KT M06/M08 A3026 RMK A01 T10621081  RH  087%=      5-min Rain = 0
KCA1 200602Z 14003KT M06/M08 A3027 RMK A01 T10621081  RH  087%=      5-min Rain = 0
KCA1 200603Z 14003KT M06/M08 A3027 RMK A01 T10621080  RH  087%=      5-min Rain = 0
KCA1 200604Z 15003KT M06/M08 A3027 RMK A01 T10611079  RH  087%=      5-min Rain = 0
KCA1 200605Z 18003KT M06/M08 A3027 RMK A01 T10601079  RH  087%=      5-min Rain = 0
KCA1 200606Z 25004KT M06/M08 A3027 RMK A01 T10601080  RH  086%=      5-min Rain = 0
KCA1 200607Z 22002KT M06/M08 A3027 RMK A01 T10631084  RH  085%=      5-min Rain = 0
KCA1 200608Z 12000KT M07/M09 A3027 RMK A01 T10661085  RH  086%=      5-min Rain = 0
KCA1 200609Z 11002KT M07/M08 A3027 RMK A01 T10661084  RH  087%=      5-min Rain = 0
KCA1 200610Z 10001KT M07/M08 A3027 RMK A01 T10661082  RH  088%=      5-min Rain = 0
KCA1 200611Z 22000KT M07/M08 A3028 RMK A01 T10651081  RH  089%=      5-min Rain = 0
KCA1 200612Z 23002KT M06/M08 A3028 RMK A01 T10641080  RH  089%=      5-min Rain = 0
KCA1 200613Z 24003KT M06/M08 A3028 RMK A01 T10641080  RH  088%=      5-min Rain = 0
KCA1 200614Z 23003KT M07/M08 A3028 RMK A01 T10661084  RH  088%=      5-min Rain = 0
KCA1 200615Z 25005KT M07/M09 A3028 RMK A01 T10691086  RH  088%=      5-min Rain = 0
KCA1 200616Z 25004KT M07/M09 A3028 RMK A01 T10711087  RH  089%=      5-min Rain = 0
KCA1 200617Z 23001KT M07/M09 A3028 RMK A01 T10721086  RH  090%=      5-min Rain = 0
KCA1 200618Z 22001KT M07/M09 A3028 RMK A01 T10731085  RH  091%=      5-min Rain = 0
KCA1 200619Z 26002KT M07/M08 A3028 RMK A01 T10731084  RH  092%=      5-min Rain = 0
KCA1 200620Z 26001KT M07/M08 A3028 RMK A01 T10741084  RH  093%=      5-min Rain = 0
KCA1 200621Z 26000KT M08/M08 A3028 RMK A01 T10751084  RH  093%=      5-min Rain = 0
KCA1 200622Z 00000KT M08/M09 A3028 RMK A01 T10761085  RH  093%=      5-min Rain = 0
KCA1 200623Z 24001KT M08/M08 A3028 RMK A01 T10751084  RH  093%=      5-min Rain = 0
KCA1 200624Z 24002KT M08/M08 A3028 RMK A01 T10751084  RH  094%=      5-min Rain = 0
KCA1 200625Z 24001KT M08/M08 A3028 RMK A01 T10761083  RH  094%=      5-min Rain = 0
KCA1 200626Z 24001KT M08/M08 A3029 RMK A01 T10761083  RH  095%=      5-min Rain = 0
KCA1 200627Z 25001KT M08/M08 A3029 RMK A01 T10751082  RH  095%=      5-min Rain = 0
KCA1 200628Z 26001KT M08/M08 A3029 RMK A01 T10751081  RH  095%=      5-min Rain = 0
KCA1 200629Z 27001KT M08/M08 A3029 RMK A01 T10751081  RH  096%=      5-min Rain = 0
KCA1 200630Z 27000KT M08/M08 A3029 RMK A01 T10751081  RH  096%=      5-min Rain = 0
KCA1 200631Z 00000KT M08/M08 A3029 RMK A01 T10751081  RH  096%=      5-min Rain = 0
KCA1 200632Z 00000KT M08/M08 A3028 RMK A01 T10761081  RH  096%=      5-min Rain = 0
KCA1 200633Z 00000KT M08/M08 A3028 RMK A01 T10761081  RH  096%=      5-min Rain = 0
KCA1 200634Z 03001KT M08/M08 A3028 RMK A01 T10751081  RH  096%=      5-min Rain = 0
KCA1 200635Z 05001KT M08/M08 A3028 RMK A01 T10761081  RH  096%=      5-min Rain = 0
KCA1 200636Z 00000KT M08/M08 A3028 RMK A01 T10761082  RH  096%=      5-min Rain = 0
KCA1 200637Z 00000KT M08/M08 A3028 RMK A01 T10761082  RH  096%=      5-min Rain = 0
KCA1 200638Z 00000KT M08/M08 A3028 RMK A01 T10771083  RH  096%=      5-min Rain = 0
KCA1 200639Z 07000KT M08/M08 A3028 RMK A01 T10771083  RH  096%=      5-min Rain = 0
KCA1 200640Z 07001KT M08/M08 A3028 RMK A01 T10771083  RH  095%=      5-min Rain = 0
KCA1 200641Z 07000KT M08/M08 A3028 RMK A01 T10771084  RH  095%=      5-min Rain = 0
KCA1 200642Z 07000KT M08/M08 A3028 RMK A01 T10771083  RH  095%=      5-min Rain = 0
KCA1 200643Z 12000KT M08/M08 A3028 RMK A01 T10771084  RH  095%=      5-min Rain = 0
KCA1 200644Z 13002KT M08/M08 A3027 RMK A01 T10771084  RH  095%=      5-min Rain = 0
KCA1 200645Z 14002KT M08/M08 A3027 RMK A01 T10771084  RH  094%=      5-min Rain = 0
KCA1 200646Z 15003KT M08/M08 A3027 RMK A01 T10771084  RH  095%=      5-min Rain = 0
KCA1 200647Z 15002KT M07/M08 A3027 RMK A01 T10741081  RH  095%=      5-min Rain = 0
KCA1 200648Z 14002KT M07/M08 A3027 RMK A01 T10711077  RH  095%=      5-min Rain = 0
KCA1 200649Z 13002KT M07/M07 A3027 RMK A01 T10681074  RH  096%=      5-min Rain = 0
KCA1 200650Z 13002KT M07/M07 A3027 RMK A01 T10671074  RH  095%=      5-min Rain = 0
KCA1 200651Z 13001KT M07/M08 A3027 RMK A01 T10681076  RH  094%=      5-min Rain = 0
KCA1 200652Z 13001KT M07/M08 A3027 RMK A01 T10691078  RH  093%=      5-min Rain = 0
KCA1 200653Z 13001KT M07/M08 A3027 RMK A01 T10701080  RH  093%=      5-min Rain = 0
KCA1 200654Z 11001KT M07/M08 A3027 RMK A01 T10701080  RH  093%=      5-min Rain = 0
KCA1 200655Z 10002KT M07/M08 A3027 RMK A01 T10701081  RH  092%=      5-min Rain = 0
KCA1 200656Z 09002KT M07/M08 A3027 RMK A01 T10721084  RH  091%=      5-min Rain = 0
KCA1 200657Z 08002KT M07/M09 A3027 RMK A01 T10741087  RH  091%=      5-min Rain = 0
KCA1 200658Z 08002KT M08/M09 A3027 RMK A01 T10751087  RH  091%=      5-min Rain = 0
KCA1 200659Z 08003KT M08/M09 A3027 RMK A01 T10751086  RH  092%=      5-min Rain = 0
KCA1 200700Z 09003KT M07/M08 A3026 RMK A01 T10741084  RH  093%=      5-min Rain = 0
KCA1 200701Z 09003KT M07/M08 A3026 RMK A01 T10731083  RH  093%=      5-min Rain = 0
KCA1 200702Z 09003KT M07/M08 A3026 RMK A01 T10721082  RH  093%=      5-min Rain = 0
KCA1 200703Z 09003KT M07/M08 A3027 RMK A01 T10711081  RH  093%=      5-min Rain = 0
KCA1 200704Z 09003KT M07/M08 A3027 RMK A01 T10701080  RH  093%=      5-min Rain = 0
KCA1 200705Z 09003KT M07/M08 A3026 RMK A01 T10711081  RH  092%=      5-min Rain = 0
KCA1 200706Z 09004KT M07/M08 A3026 RMK A01 T10721082  RH  092%=      5-min Rain = 0
KCA1 200707Z 10004KT M07/M08 A3026 RMK A01 T10721083  RH  092%=      5-min Rain = 0
KCA1 200708Z 09004KT M07/M08 A3026 RMK A01 T10731084  RH  092%=      5-min Rain = 0
KCA1 200709Z 09004KT M07/M09 A3026 RMK A01 T10741085  RH  092%=      5-min Rain = 0
KCA1 200710Z 08004KT M08/M09 A3026 RMK A01 T10751086  RH  092%=      5-min Rain = 0
KCA1 200711Z 09005KT M08/M09 A3026 RMK A01 T10761088  RH  091%=      5-min Rain = 0
KCA1 200712Z 09005KT M08/M09 A3026 RMK A01 T10771089  RH  091%=      5-min Rain = 0
KCA1 200713Z 09005KT M08/M09 A3026 RMK A01 T10781090  RH  092%=      5-min Rain = 0
KCA1 200714Z 08005KT M08/M09 A3026 RMK A01 T10781089  RH  092%=      5-min Rain = 0
KCA1 200715Z 08005KT M08/M09 A3026 RMK A01 T10781089  RH  092%=      5-min Rain = 0
KCA1 200716Z 08005KT M08/M09 A3026 RMK A01 T10781089  RH  092%=      5-min Rain = 0
KCA1 200717Z 08005KT M08/M09 A3026 RMK A01 T10781088  RH  092%=      5-min Rain = 0
KCA1 200718Z 09005KT M08/M09 A3026 RMK A01 T10781088  RH  092%=      5-min Rain = 0
KCA1 200719Z 09004KT M08/M09 A3026 RMK A01 T10771087  RH  093%=      5-min Rain = 0
KCA1 200720Z 09004KT M08/M09 A3026 RMK A01 T10761087  RH  092%=      5-min Rain = 0
KCA1 200721Z 10004KT M08/M09 A3026 RMK A01 T10771087  RH  092%=      5-min Rain = 0
KCA1 200722Z 11004KT M08/M09 A3026 RMK A01 T10761087  RH  092%=      5-min Rain = 0
KCA1 200723Z 11003KT M08/M09 A3026 RMK A01 T10761087  RH  092%=      5-min Rain = 0
KCA1 200724Z 12003KT M08/M09 A3026 RMK A01 T10751086  RH  092%=      5-min Rain = 0
KCA1 200725Z 13003KT M07/M09 A3026 RMK A01 T10741085  RH  092%=      5-min Rain = 0
KCA1 200726Z 13003KT M07/M08 A3026 RMK A01 T10731084  RH  092%=      5-min Rain = 0
KCA1 200727Z 13003KT M07/M08 A3026 RMK A01 T10721083  RH  092%=      5-min Rain = 0
KCA1 200728Z 13003KT M07/M08 A3026 RMK A01 T10711082  RH  092%=      5-min Rain = 0
KCA1 200729Z 12003KT M07/M08 A3026 RMK A01 T10711083  RH  091%=      5-min Rain = 0
KCA1 200730Z 13002KT M07/M08 A3026 RMK A01 T10711084  RH  091%=      5-min Rain = 0
KCA1 200731Z 14002KT M07/M08 A3026 RMK A01 T10711084  RH  090%=      5-min Rain = 0
KCA1 200732Z 18001KT M07/M09 A3026 RMK A01 T10721086  RH  090%=      5-min Rain = 0
KCA1 200733Z 15001KT M07/M09 A3026 RMK A01 T10731086  RH  090%=      5-min Rain = 0
KCA1 200734Z 19000KT M07/M09 A3026 RMK A01 T10721085  RH  091%=      5-min Rain = 0
KCA1 200735Z 21001KT M07/M08 A3026 RMK A01 T10721084  RH  091%=      5-min Rain = 0
KCA1 200736Z 19001KT M07/M08 A3026 RMK A01 T10721084  RH  091%=      5-min Rain = 0
KCA1 200737Z 18002KT M07/M09 A3026 RMK A01 T10731085  RH  091%=      5-min Rain = 0
KCA1 200738Z 18002KT M07/M09 A3026 RMK A01 T10741085  RH  092%=      5-min Rain = 0
KCA1 200739Z 18002KT M07/M09 A3026 RMK A01 T10741085  RH  092%=      5-min Rain = 0
KCA1 200740Z 20003KT M08/M09 A3026 RMK A01 T10751085  RH  093%=      5-min Rain = 0
KCA1 200741Z 21003KT M08/M09 A3026 RMK A01 T10771086  RH  093%=      5-min Rain = 0
KCA1 200742Z 22003KT M08/M09 A3026 RMK A01 T10771087  RH  093%=      5-min Rain = 0
KCA1 200743Z 22003KT M08/M09 A3025 RMK A01 T10791088  RH  093%=      5-min Rain = 0
KCA1 200744Z 22002KT M08/M09 A3026 RMK A01 T10801088  RH  094%=      5-min Rain = 0
KCA1 200745Z 23002KT M08/M09 A3026 RMK A01 T10801088  RH  094%=      5-min Rain = 0
KCA1 200746Z 23001KT M08/M09 A3026 RMK A01 T10811089  RH  094%=      5-min Rain = 0
KCA1 200747Z 24001KT M08/M09 A3026 RMK A01 T10811089  RH  094%=      5-min Rain = 0
KCA1 200748Z 24000KT M08/M09 A3026 RMK A01 T10821089  RH  094%=      5-min Rain = 0
KCA1 200749Z 00000KT M08/M09 A3026 RMK A01 T10821089  RH  095%=      5-min Rain = 0
KCA1 200750Z 00000KT M08/M09 A3026 RMK A01 T10821088  RH  095%=      5-min Rain = 0
KCA1 200751Z 00000KT M08/M09 A3026 RMK A01 T10811087  RH  096%=      5-min Rain = 0
KCA1 200752Z 24000KT M08/M09 A3026 RMK A01 T10811087  RH  096%=      5-min Rain = 0
KCA1 200753Z 24001KT M08/M09 A3026 RMK A01 T10821088  RH  096%=      5-min Rain = 0
KCA1 200754Z 24001KT M08/M09 A3026 RMK A01 T10831088  RH  096%=      5-min Rain = 0
KCA1 200755Z 23001KT M08/M09 A3026 RMK A01 T10821088  RH  096%=      5-min Rain = 0
KCA1 200756Z 22002KT M08/M09 A3026 RMK A01 T10821087  RH  096%=      5-min Rain = 0
KCA1 200757Z 22002KT M08/M09 A3026 RMK A01 T10811086  RH  096%=      5-min Rain = 0
KCA1 200758Z 21001KT M08/M09 A3026 RMK A01 T10811086  RH  097%=      5-min Rain = 0
KCA1 200759Z 21002KT M08/M09 A3026 RMK A01 T10811085  RH  097%=      5-min Rain = 0
KCA1 200800Z 21002KT M08/M09 A3026 RMK A01 T10801085  RH  097%=      5-min Rain = 0
KCA1 200801Z 20003KT M08/M08 A3026 RMK A01 T10801084  RH  097%=      5-min Rain = 0
KCA1 200802Z 19003KT M08/M08 A3026 RMK A01 T10791083  RH  097%=      5-min Rain = 0
KCA1 200803Z 19002KT M08/M08 A3026 RMK A01 T10791083  RH  097%=      5-min Rain = 0
KCA1 200804Z 18002KT M08/M08 A3026 RMK A01 T10791083  RH  097%=      5-min Rain = 0
KCA1 200805Z 18001KT M08/M08 A3026 RMK A01 T10791083  RH  097%=      5-min Rain = 0
KCA1 200806Z 19002KT M08/M08 A3027 RMK A01 T10791083  RH  097%=      5-min Rain = 0
KCA1 200807Z 19002KT M08/M08 A3027 RMK A01 T10791083  RH  097%=      5-min Rain = 0
KCA1 200808Z 18003KT M08/M08 A3026 RMK A01 T10791083  RH  097%=      5-min Rain = 0
KCA1 200809Z 17003KT M08/M08 A3026 RMK A01 T10781081  RH  097%=      5-min Rain = 0
KCA1 200810Z 16003KT M08/M08 A3025 RMK A01 T10761080  RH  098%=      5-min Rain = 0
KCA1 200811Z 15003KT M08/M08 A3025 RMK A01 T10761080  RH  097%=      5-min Rain = 0
KCA1 200812Z 15002KT M08/M08 A3025 RMK A01 T10771081  RH  097%=      5-min Rain = 0
KCA1 200813Z 15003KT M08/M08 A3025 RMK A01 T10781082  RH  097%=      5-min Rain = 0
KCA1 200814Z 16003KT M08/M08 A3025 RMK A01 T10781082  RH  097%=      5-min Rain = 0
KCA1 200815Z 15004KT M08/M08 A3025 RMK A01 T10781083  RH  096%=      5-min Rain = 0
KCA1 200816Z 15004KT M08/M08 A3025 RMK A01 T10771082  RH  096%=      5-min Rain = 0
KCA1 200817Z 15003KT M08/M08 A3025 RMK A01 T10781083  RH  096%=      5-min Rain = 0
KCA1 200818Z 15003KT M08/M08 A3025 RMK A01 T10771083  RH  096%=      5-min Rain = 0
KCA1 200819Z 15003KT M08/M08 A3025 RMK A01 T10771083  RH  096%=      5-min Rain = 0
KCA1 200820Z 17003KT M08/M08 A3025 RMK A01 T10771083  RH  095%=      5-min Rain = 0
KCA1 200821Z 17003KT M08/M08 A3025 RMK A01 T10771084  RH  095%=      5-min Rain = 0
KCA1 200822Z 18004KT M08/M08 A3026 RMK A01 T10761083  RH  095%=      5-min Rain = 0
KCA1 200823Z 18004KT M08/M08 A3026 RMK A01 T10751082  RH  095%=      5-min Rain = 0
KCA1 200824Z 18004KT M07/M08 A3026 RMK A01 T10721079  RH  095%=      5-min Rain = 0
KCA1 200825Z 18003KT M07/M08 A3026 RMK A01 T10691076  RH  095%=      5-min Rain = 0
KCA1 200826Z 18003KT M07/M07 A3026 RMK A01 T10661074  RH  094%=      5-min Rain = 0
KCA1 200827Z 17003KT M06/M07 A3025 RMK A01 T10641074  RH  093%=      5-min Rain = 0
KCA1 200828Z 17003KT M06/M07 A3025 RMK A01 T10631074  RH  092%=      5-min Rain = 0
KCA1 200829Z 17004KT M06/M08 A3025 RMK A01 T10621075  RH  091%=      5-min Rain = 0
KCA1 200830Z 17004KT M06/M08 A3025 RMK A01 T10621076  RH  090%=      5-min Rain = 0
KCA1 200831Z 17004KT M06/M08 A3025 RMK A01 T10621077  RH  089%=      5-min Rain = 0
KCA1 200832Z 17004KT M06/M08 A3025 RMK A01 T10621078  RH  088%=      5-min Rain = 0
KCA1 200833Z 18004KT M06/M08 A3025 RMK A01 T10621078  RH  088%=      5-min Rain = 0
KCA1 200834Z 18004KT M06/M08 A3025 RMK A01 T10621078  RH  088%=      5-min Rain = 0
KCA1 200835Z 18004KT M06/M08 A3024 RMK A01 T10621078  RH  089%=      5-min Rain = 0
KCA1 200836Z 19003KT M06/M08 A3024 RMK A01 T10631079  RH  089%=      5-min Rain = 0
KCA1 200837Z 19004KT M06/M08 A3024 RMK A01 T10621079  RH  088%=      5-min Rain = 0
KCA1 200838Z 19004KT M06/M08 A3025 RMK A01 T10621079  RH  088%=      5-min Rain = 0
KCA1 200839Z 19004KT M06/M08 A3025 RMK A01 T10621079  RH  088%=      5-min Rain = 0
KCA1 200840Z 19004KT M06/M08 A3025 RMK A01 T10631080  RH  088%=      5-min Rain = 0
KCA1 200841Z 19003KT M06/M08 A3025 RMK A01 T10631080  RH  088%=      5-min Rain = 0
KCA1 200842Z 19003KT M06/M08 A3025 RMK A01 T10641080  RH  088%=      5-min Rain = 0
KCA1 200843Z 18003KT M06/M08 A3025 RMK A01 T10641080  RH  088%=      5-min Rain = 0
KCA1 200844Z 18002KT M06/M08 A3025 RMK A01 T10641080  RH  088%=      5-min Rain = 0
KCA1 200845Z 17002KT M06/M08 A3025 RMK A01 T10641080  RH  088%=      5-min Rain = 0
KCA1 200846Z 17003KT M06/M08 A3025 RMK A01 T10641080  RH  088%=      5-min Rain = 0
KCA1 200847Z 17003KT M06/M08 A3025 RMK A01 T10641080  RH  088%=      5-min Rain = 0
KCA1 200848Z 18004KT M06/M08 A3025 RMK A01 T10631079  RH  089%=      5-min Rain = 0
KCA1 200849Z 18004KT M06/M08 A3025 RMK A01 T10621078  RH  088%=      5-min Rain = 0
KCA1 200850Z 18004KT M06/M08 A3025 RMK A01 T10621078  RH  088%=      5-min Rain = 0
KCA1 200851Z 17004KT M06/M08 A3025 RMK A01 T10621079  RH  088%=      5-min Rain = 0
KCA1 200852Z 16004KT M06/M08 A3024 RMK A01 T10611078  RH  088%=      5-min Rain = 0
KCA1 200853Z 17004KT M06/M08 A3025 RMK A01 T10611079  RH  087%=      5-min Rain = 0
KCA1 200854Z 17004KT M06/M08 A3025 RMK A01 T10601079  RH  087%=      5-min Rain = 0
KCA1 200855Z 17004KT M06/M08 A3025 RMK A01 T10581077  RH  087%=      5-min Rain = 0
KCA1 200856Z 17004KT M06/M08 A3025 RMK A01 T10571077  RH  086%=      5-min Rain = 0
KCA1 200857Z 17005KT M06/M08 A3025 RMK A01 T10571078  RH  085%=      5-min Rain = 0
KCA1 200858Z 16005KT M06/M08 A3025 RMK A01 T10561078  RH  085%=      5-min Rain = 0
KCA1 200859Z 16004KT M06/M08 A3024 RMK A01 T10551078  RH  084%=      5-min Rain = 0
KCA1 200900Z 16003KT M06/M08 A3024 RMK A01 T10561078  RH  084%=      5-min Rain = 0
KCA1 200901Z 16003KT M06/M08 A3024 RMK A01 T10561078  RH  084%=      5-min Rain = 0
KCA1 200902Z 15002KT M06/M08 A3024 RMK A01 T10561078  RH  084%=      5-min Rain = 0
KCA1 200903Z 14003KT M06/M08 A3024 RMK A01 T10551078  RH  084%=      5-min Rain = 0
KCA1 200904Z 14003KT M06/M08 A3024 RMK A01 T10561079  RH  084%=      5-min Rain = 0
KCA1 200905Z 16003KT M06/M08 A3024 RMK A01 T10571080  RH  084%=      5-min Rain = 0
KCA1 200906Z 16004KT M06/M08 A3024 RMK A01 T10571080  RH  084%=      5-min Rain = 0
KCA1 200907Z 17004KT M06/M08 A3024 RMK A01 T10571080  RH  084%=      5-min Rain = 0
KCA1 200908Z 18005KT M06/M08 A3024 RMK A01 T10571080  RH  084%=      5-min Rain = 0
KCA1 200909Z 16004KT M06/M08 A3024 RMK A01 T10561079  RH  084%=      5-min Rain = 0
KCA1 200910Z 16004KT M06/M08 A3024 RMK A01 T10561078  RH  084%=      5-min Rain = 0
KCA1 200911Z 17004KT M06/M08 A3024 RMK A01 T10561079  RH  084%=      5-min Rain = 0
KCA1 200912Z 17004KT M06/M08 A3024 RMK A01 T10551079  RH  084%=      5-min Rain = 0
KCA1 200913Z 17004KT M06/M08 A3024 RMK A01 T10551078  RH  084%=      5-min Rain = 0
KCA1 200914Z 16004KT M05/M08 A3024 RMK A01 T10541078  RH  083%=      5-min Rain = 0
KCA1 200915Z 15003KT M06/M08 A3024 RMK A01 T10551079  RH  083%=      5-min Rain = 0
KCA1 200916Z 15003KT M06/M08 A3024 RMK A01 T10561080  RH  083%=      5-min Rain = 0
KCA1 200917Z 15003KT M06/M08 A3024 RMK A01 T10571081  RH  083%=      5-min Rain = 0
KCA1 200918Z 16002KT M06/M08 A3024 RMK A01 T10581081  RH  084%=      5-min Rain = 0
KCA1 200919Z 13002KT M06/M08 A3024 RMK A01 T10571080  RH  084%=      5-min Rain = 0
KCA1 200920Z 13002KT M06/M08 A3024 RMK A01 T10571080  RH  084%=      5-min Rain = 0
KCA1 200921Z 12002KT M06/M08 A3024 RMK A01 T10581080  RH  084%=      5-min Rain = 0
KCA1 200922Z 11003KT M06/M08 A3024 RMK A01 T10581080  RH  084%=      5-min Rain = 0
KCA1 200923Z 12003KT M06/M08 A3024 RMK A01 T10591081  RH  085%=      5-min Rain = 0
KCA1 200924Z 12003KT M06/M08 A3023 RMK A01 T10601081  RH  085%=      5-min Rain = 0
KCA1 200925Z 13003KT M06/M08 A3023 RMK A01 T10601082  RH  085%=      5-min Rain = 0
KCA1 200926Z 12003KT M06/M08 A3023 RMK A01 T10611083  RH  085%=      5-min Rain = 0
KCA1 200927Z 13003KT M06/M08 A3023 RMK A01 T10621082  RH  086%=      5-min Rain = 0
KCA1 200928Z 13003KT M06/M08 A3023 RMK A01 T10621082  RH  086%=      5-min Rain = 0
KCA1 200929Z 13003KT M06/M08 A3023 RMK A01 T10631082  RH  086%=      5-min Rain = 0
KCA1 200930Z 14003KT M06/M08 A3023 RMK A01 T10631082  RH  087%=      5-min Rain = 0
KCA1 200931Z 14003KT M06/M08 A3023 RMK A01 T10631082  RH  087%=      5-min Rain = 0
KCA1 200932Z 13003KT M06/M08 A3023 RMK A01 T10631082  RH  087%=      5-min Rain = 0
KCA1 200933Z 13003KT M06/M08 A3023 RMK A01 T10631081  RH  087%=      5-min Rain = 0
KCA1 200934Z 13003KT M06/M08 A3023 RMK A01 T10631082  RH  087%=      5-min Rain = 0
KCA1 200935Z 13003KT M06/M08 A3023 RMK A01 T10631082  RH  087%=      5-min Rain = 0
KCA1 200936Z 13003KT M06/M08 A3023 RMK A01 T10631081  RH  087%=      5-min Rain = 0
KCA1 200937Z 13003KT M06/M08 A3023 RMK A01 T10631081  RH  087%=      5-min Rain = 0
KCA1 200938Z 13003KT M06/M08 A3023 RMK A01 T10631081  RH  087%=      5-min Rain = 0
KCA1 200939Z 13003KT M06/M08 A3023 RMK A01 T10631081  RH  087%=      5-min Rain = 0
KCA1 200940Z 13003KT M06/M08 A3023 RMK A01 T10631080  RH  088%=      5-min Rain = 0
KCA1 200941Z 13003KT M06/M08 A3023 RMK A01 T10631080  RH  088%=      5-min Rain = 0
KCA1 200942Z 13003KT M06/M08 A3023 RMK A01 T10621079  RH  088%=      5-min Rain = 0
KCA1 200943Z 13003KT M06/M08 A3023 RMK A01 T10621080  RH  088%=      5-min Rain = 0
KCA1 200944Z 12003KT M06/M08 A3023 RMK A01 T10621080  RH  087%=      5-min Rain = 0
KCA1 200945Z 13003KT M06/M08 A3023 RMK A01 T10621080  RH  087%=      5-min Rain = 0
KCA1 200946Z 14004KT M06/M08 A3023 RMK A01 T10621081  RH  087%=      5-min Rain = 0
KCA1 200947Z 14005KT M06/M08 A3023 RMK A01 T10621081  RH  087%=      5-min Rain = 0
KCA1 200948Z 14005KT M06/M08 A3023 RMK A01 T10621080  RH  087%=      5-min Rain = 0
KCA1 200949Z 14004KT M06/M08 A3023 RMK A01 T10621080  RH  087%=      5-min Rain = 0
KCA1 200950Z 14003KT M06/M08 A3023 RMK A01 T10621081  RH  087%=      5-min Rain = 0
KCA1 200951Z 15003KT M06/M08 A3023 RMK A01 T10621080  RH  087%=      5-min Rain = 0
KCA1 200952Z 15004KT M06/M08 A3023 RMK A01 T10621080  RH  087%=      5-min Rain = 0
KCA1 200953Z 15004KT M06/M08 A3023 RMK A01 T10621080  RH  087%=      5-min Rain = 0
KCA1 200954Z 14003KT M06/M08 A3023 RMK A01 T10611079  RH  087%=      5-min Rain = 0
KCA1 200955Z 14004KT M06/M08 A3023 RMK A01 T10611078  RH  087%=      5-min Rain = 0
KCA1 200956Z 14004KT M06/M08 A3023 RMK A01 T10611079  RH  087%=      5-min Rain = 0
KCA1 200957Z 15004KT M06/M08 A3023 RMK A01 T10611079  RH  087%=      5-min Rain = 0
KCA1 200958Z 16004KT M06/M08 A3023 RMK A01 T10611079  RH  087%=      5-min Rain = 0
KCA1 200959Z 15003KT M06/M08 A3023 RMK A01 T10601079  RH  087%=      5-min Rain = 0
KCA1 201000Z 16004KT M06/M08 A3023 RMK A01 T10601079  RH  087%=      5-min Rain = 0
KCA1 201001Z 17004KT M06/M08 A3023 RMK A01 T10601078  RH  087%=      5-min Rain = 0
KCA1 201002Z 18004KT M06/M08 A3023 RMK A01 T10581076  RH  087%=      5-min Rain = 0
KCA1 201003Z 16003KT M06/M08 A3023 RMK A01 T10581077  RH  086%=      5-min Rain = 0
KCA1 201004Z 17003KT M06/M08 A3023 RMK A01 T10581077  RH  086%=      5-min Rain = 0
KCA1 201005Z 16003KT M06/M08 A3023 RMK A01 T10581078  RH  086%=      5-min Rain = 0
KCA1 201006Z 16003KT M06/M08 A3023 RMK A01 T10591079  RH  086%=      5-min Rain = 0
KCA1 201007Z 17002KT M06/M08 A3024 RMK A01 T10601080  RH  086%=      5-min Rain = 0
KCA1 201008Z 17002KT M06/M08 A3024 RMK A01 T10611080  RH  087%=      5-min Rain = 0
KCA1 201009Z 16003KT M06/M08 A3024 RMK A01 T10621080  RH  087%=      5-min Rain = 0
KCA1 201010Z 15003KT M06/M08 A3024 RMK A01 T10621080  RH  087%=      5-min Rain = 0
KCA1 201011Z 16003KT M06/M08 A3024 RMK A01 T10611078  RH  088%=      5-min Rain = 0
KCA1 201012Z 16003KT M06/M08 A3024 RMK A01 T10601077  RH  088%=      5-min Rain = 0
KCA1 201013Z 16003KT M06/M08 A3024 RMK A01 T10591077  RH  087%=      5-min Rain = 0
KCA1 201014Z 14003KT M06/M08 A3024 RMK A01 T10591077  RH  087%=      5-min Rain = 0
KCA1 201015Z 14003KT M06/M08 A3024 RMK A01 T10591078  RH  087%=      5-min Rain = 0
KCA1 201016Z 16003KT M06/M08 A3023 RMK A01 T10591078  RH  086%=      5-min Rain = 0
KCA1 201017Z 15004KT M06/M08 A3024 RMK A01 T10581077  RH  087%=      5-min Rain = 0
KCA1 201018Z 14005KT M06/M08 A3023 RMK A01 T10591078  RH  087%=      5-min Rain = 0
KCA1 201019Z 15005KT M06/M08 A3023 RMK A01 T10591077  RH  087%=      5-min Rain = 0
KCA1 201020Z 16005KT M06/M08 A3023 RMK A01 T10581077  RH  087%=      5-min Rain = 0
KCA1 201021Z 15005KT M06/M08 A3023 RMK A01 T10591077  RH  087%=      5-min Rain = 0
KCA1 201022Z 15004KT M06/M08 A3023 RMK A01 T10581076  RH  087%=      5-min Rain = 0
KCA1 201023Z 15004KT M06/M07 A3023 RMK A01 T10571074  RH  087%=      5-min Rain = 0
KCA1 201024Z 15004KT M06/M07 A3023 RMK A01 T10561074  RH  088%=      5-min Rain = 0
KCA1 201025Z 16005KT M06/M07 A3023 RMK A01 T10561073  RH  088%=      5-min Rain = 0
KCA1 201026Z 17005KT M06/M07 A3023 RMK A01 T10561073  RH  088%=      5-min Rain = 0
KCA1 201027Z 17005KT M05/M07 A3023 RMK A01 T10541071  RH  088%=      5-min Rain = 0
KCA1 201028Z 16004KT M05/M07 A3023 RMK A01 T10531070  RH  088%=      5-min Rain = 0
KCA1 201029Z 17004KT M05/M07 A3023 RMK A01 T10531071  RH  087%=      5-min Rain = 0
KCA1 201030Z 17004KT M05/M07 A3023 RMK A01 T10531072  RH  087%=      5-min Rain = 0
KCA1 201031Z 16004KT M05/M07 A3023 RMK A01 T10531071  RH  087%=      5-min Rain = 0
KCA1 201032Z 15004KT M05/M07 A3023 RMK A01 T10531071  RH  087%=      5-min Rain = 0
KCA1 201033Z 16004KT M05/M07 A3023 RMK A01 T10531071  RH  087%=      5-min Rain = 0
KCA1 201034Z 17005KT M05/M07 A3023 RMK A01 T10531071  RH  087%=      5-min Rain = 0
KCA1 201035Z 17004KT M05/M07 A3023 RMK A01 T10531072  RH  087%=      5-min Rain = 0
KCA1 201036Z 16004KT M05/M07 A3023 RMK A01 T10531072  RH  086%=      5-min Rain = 0
KCA1 201037Z 16005KT M05/M07 A3023 RMK A01 T10531072  RH  086%=      5-min Rain = 0
KCA1 201038Z 16005KT M05/M07 A3023 RMK A01 T10531072  RH  086%=      5-min Rain = 0
KCA1 201039Z 16005KT M05/M07 A3023 RMK A01 T10541074  RH  086%=      5-min Rain = 0
KCA1 201040Z 16005KT M06/M07 A3023 RMK A01 T10551074  RH  087%=      5-min Rain = 0
KCA1 201041Z 16004KT M06/M07 A3022 RMK A01 T10561074  RH  087%=      5-min Rain = 0
KCA1 201042Z 15004KT M06/M07 A3022 RMK A01 T10561074  RH  087%=      5-min Rain = 0
KCA1 201043Z 15004KT M06/M07 A3022 RMK A01 T10561074  RH  088%=      5-min Rain = 0
KCA1 201044Z 16004KT M06/M07 A3022 RMK A01 T10571074  RH  088%=      5-min Rain = 0
KCA1 201045Z 17004KT M06/M07 A3022 RMK A01 T10571074  RH  088%=      5-min Rain = 0
KCA1 201046Z 16004KT M06/M07 A3022 RMK A01 T10571073  RH  088%=      5-min Rain = 0
KCA1 201047Z 16004KT M06/M07 A3022 RMK A01 T10571073  RH  088%=      5-min Rain = 0
KCA1 201048Z 16004KT M06/M07 A3022 RMK A01 T10561073  RH  088%=      5-min Rain = 0
KCA1 201049Z 15004KT M06/M07 A3022 RMK A01 T10571074  RH  088%=      5-min Rain = 0
KCA1 201050Z 15004KT M06/M07 A3022 RMK A01 T10571074  RH  088%=      5-min Rain = 0
KCA1 201051Z 15003KT M06/M07 A3022 RMK A01 T10571074  RH  088%=      5-min Rain = 0
KCA1 201052Z 15002KT M06/M08 A3022 RMK A01 T10581075  RH  088%=      5-min Rain = 0
KCA1 201053Z 15002KT M06/M08 A3022 RMK A01 T10591075  RH  088%=      5-min Rain = 0
KCA1 201054Z 15002KT M06/M08 A3022 RMK A01 T10591075  RH  088%=      5-min Rain = 0
KCA1 201055Z 14002KT M06/M08 A3022 RMK A01 T10591075  RH  089%=      5-min Rain = 0
KCA1 201056Z 14002KT M06/M07 A3022 RMK A01 T10591074  RH  089%=      5-min Rain = 0
KCA1 201057Z 14003KT M06/M07 A3022 RMK A01 T10591074  RH  089%=      5-min Rain = 0
KCA1 201058Z 14003KT M06/M07 A3022 RMK A01 T10591074  RH  089%=      5-min Rain = 0
KCA1 201059Z 15002KT M06/M07 A3022 RMK A01 T10591074  RH  089%=      5-min Rain = 0
KCA1 201100Z 13002KT M06/M07 A3022 RMK A01 T10591074  RH  089%=      5-min Rain = 0
KCA1 201101Z 14002KT M06/M07 A3022 RMK A01 T10591074  RH  089%=      5-min Rain = 0
KCA1 201102Z 15002KT M06/M07 A3021 RMK A01 T10591074  RH  089%=      5-min Rain = 0
KCA1 201103Z 16003KT M06/M07 A3021 RMK A01 T10591074  RH  089%=      5-min Rain = 0
KCA1 201104Z 15002KT M06/M07 A3021 RMK A01 T10591074  RH  089%=      5-min Rain = 0
KCA1 201105Z 18003KT M06/M08 A3021 RMK A01 T10601075  RH  089%=      5-min Rain = 0
KCA1 201106Z 19003KT M06/M07 A3021 RMK A01 T10591074  RH  090%=      5-min Rain = 0
KCA1 201107Z 18002KT M06/M07 A3021 RMK A01 T10581072  RH  090%=      5-min Rain = 0
KCA1 201108Z 17002KT M06/M07 A3021 RMK A01 T10571070  RH  090%=      5-min Rain = 0
KCA1 201109Z 19004KT M06/M07 A3021 RMK A01 T10551068  RH  090%=      5-min Rain = 0
KCA1 201110Z 19004KT M05/M07 A3021 RMK A01 T10521065  RH  090%=      5-min Rain = 0
KCA1 201111Z 20003KT M05/M07 A3021 RMK A01 T10501065  RH  089%=      5-min Rain = 0
KCA1 201112Z 17002KT M05/M07 A3021 RMK A01 T10491065  RH  088%=      5-min Rain = 0
KCA1 201113Z 19003KT M05/M07 A3021 RMK A01 T10491067  RH  087%=      5-min Rain = 0
KCA1 201114Z 19004KT M05/M07 A3021 RMK A01 T10501069  RH  087%=      5-min Rain = 0
KCA1 201115Z 18004KT M05/M07 A3021 RMK A01 T10501068  RH  087%=      5-min Rain = 0
KCA1 201116Z 17003KT M05/M07 A3021 RMK A01 T10501068  RH  087%=      5-min Rain = 0
KCA1 201117Z 16003KT M05/M07 A3021 RMK A01 T10501069  RH  087%=      5-min Rain = 0
KCA1 201118Z 17004KT M05/M07 A3021 RMK A01 T10501070  RH  086%=      5-min Rain = 0
KCA1 201119Z 18005KT M05/M07 A3021 RMK A01 T10501069  RH  086%=      5-min Rain = 0
KCA1 201120Z 19005KT M05/M07 A3021 RMK A01 T10481066  RH  087%=      5-min Rain = 0
KCA1 201121Z 19005KT M05/M06 A3021 RMK A01 T10451063  RH  087%=      5-min Rain = 0
KCA1 201122Z 20004KT M05/M06 A3021 RMK A01 T10451064  RH  086%=      5-min Rain = 0
KCA1 201123Z 19003KT M04/M06 A3021 RMK A01 T10441064  RH  086%=      5-min Rain = 0
KCA1 201124Z 18003KT M04/M06 A3021 RMK A01 T10431063  RH  086%=      5-min Rain = 0
KCA1 201125Z 18004KT M04/M06 A302 RMK A01 T10431064  RH  085%=      5-min Rain = 0
KCA1 201126Z 18004KT M04/M06 A302 RMK A01 T10431064  RH  085%=      5-min Rain = 0
KCA1 201127Z 18004KT M04/M06 A302 RMK A01 T10431064  RH  085%=      5-min Rain = 0
KCA1 201128Z 19003KT M04/M06 A302 RMK A01 T10431064  RH  085%=      5-min Rain = 0
KCA1 201129Z 18003KT M04/M06 A302 RMK A01 T10431064  RH  085%=      5-min Rain = 0
KCA1 201130Z 18003KT M04/M07 A302 RMK A01 T10441065  RH  085%=      5-min Rain = 0
KCA1 201131Z 19003KT M04/M07 A302 RMK A01 T10441065  RH  085%=      5-min Rain = 0
KCA1 201132Z 19002KT M04/M07 A302 RMK A01 T10441065  RH  085%=      5-min Rain = 0
KCA1 201133Z 20002KT M04/M07 A302 RMK A01 T10441065  RH  085%=      5-min Rain = 0
KCA1 201134Z 20003KT M04/M07 A302 RMK A01 T10441065  RH  085%=      5-min Rain = 0
KCA1 201135Z 20003KT M04/M07 A3021 RMK A01 T10441066  RH  085%=      5-min Rain = 0
KCA1 201136Z 19003KT M04/M07 A3021 RMK A01 T10441066  RH  085%=      5-min Rain = 0
KCA1 201137Z 19003KT M04/M07 A3021 RMK A01 T10441066  RH  085%=      5-min Rain = 0
KCA1 201138Z 18003KT M04/M07 A302 RMK A01 T10441066  RH  085%=      5-min Rain = 0
KCA1 201139Z 18002KT M04/M07 A302 RMK A01 T10441066  RH  085%=      5-min Rain = 0
KCA1 201140Z 17002KT M04/M07 A302 RMK A01 T10441066  RH  085%=      5-min Rain = 0
KCA1 201141Z 17002KT M04/M07 A302 RMK A01 T10441066  RH  085%=      5-min Rain = 0
KCA1 201142Z 18002KT M05/M07 A302 RMK A01 T10451067  RH  084%=      5-min Rain = 0
KCA1 201143Z 19002KT M05/M07 A302 RMK A01 T10451067  RH  085%=      5-min Rain = 0
KCA1 201144Z 19002KT M05/M07 A302 RMK A01 T10451067  RH  085%=      5-min Rain = 0
KCA1 201145Z 20003KT M05/M07 A302 RMK A01 T10451066  RH  085%=      5-min Rain = 0
KCA1 201146Z 21002KT M05/M07 A302 RMK A01 T10451066  RH  085%=      5-min Rain = 0
KCA1 201147Z 22001KT M05/M07 A3021 RMK A01 T10451067  RH  085%=      5-min Rain = 0
KCA1 201148Z 23001KT M05/M07 A3021 RMK A01 T10461067  RH  085%=      5-min Rain = 0
KCA1 201149Z 00000KT M05/M07 A3021 RMK A01 T10481070  RH  085%=      5-min Rain = 0
KCA1 201150Z 00000KT M05/M07 A3021 RMK A01 T10491069  RH  085%=      5-min Rain = 0
KCA1 201151Z 00000KT M05/M07 A3021 RMK A01 T10491070  RH  086%=      5-min Rain = 0
KCA1 201152Z 35000KT M05/M07 A3021 RMK A01 T10511071  RH  086%=      5-min Rain = 0
KCA1 201153Z 35001KT M05/M07 A3021 RMK A01 T10511070  RH  087%=      5-min Rain = 0
KCA1 201154Z 34000KT M05/M07 A3021 RMK A01 T10511069  RH  087%=      5-min Rain = 0
KCA1 201155Z 29000KT M05/M07 A3021 RMK A01 T10511069  RH  087%=      5-min Rain = 0
KCA1 201156Z 27001KT M05/M07 A3021 RMK A01 T10501067  RH  088%=      5-min Rain = 0
KCA1 201157Z 27001KT M05/M07 A3021 RMK A01 T10491067  RH  087%=      5-min Rain = 0
KCA1 201158Z 24002KT M05/M07 A3021 RMK A01 T10491067  RH  087%=      5-min Rain = 0
KCA1 201159Z 23002KT M05/M07 A3021 RMK A01 T10481067  RH  087%=      5-min Rain = 0
KCA1 201200Z 23002KT M05/M07 A302 RMK A01 T10471065  RH  088%=      5-min Rain = 0
KCA1 201201Z 24001KT M05/M06 A302 RMK A01 T10451062  RH  088%=      5-min Rain = 0
KCA1 201202Z 23001KT M04/M06 A302 RMK A01 T10431061  RH  087%=      5-min Rain = 0
KCA1 201203Z 22002KT M04/M06 A302 RMK A01 T10421061  RH  086%=      5-min Rain = 0
KCA1 201204Z 22002KT M04/M06 A302 RMK A01 T10411062  RH  085%=      5-min Rain = 0
KCA1 201205Z 22002KT M04/M06 A302 RMK A01 T10411063  RH  085%=      5-min Rain = 0
KCA1 201206Z 22002KT M04/M06 A302 RMK A01 T10411064  RH  084%=      5-min Rain = 0
KCA1 201207Z 21002KT M04/M06 A302 RMK A01 T10411064  RH  084%=      5-min Rain = 0
KCA1 201208Z 20001KT M04/M06 A302 RMK A01 T10411064  RH  084%=      5-min Rain = 0
KCA1 201209Z 21001KT M04/M07 A302 RMK A01 T10421065  RH  084%=      5-min Rain = 0
KCA1 201210Z 21001KT M04/M06 A302 RMK A01 T10411064  RH  084%=      5-min Rain = 0
KCA1 201211Z 21001KT M04/M06 A302 RMK A01 T10411064  RH  084%=      5-min Rain = 0
KCA1 201212Z 21001KT M04/M06 A302 RMK A01 T10411064  RH  084%=      5-min Rain = 0
KCA1 201213Z 21001KT M04/M06 A3019 RMK A01 T10411064  RH  084%=      5-min Rain = 0
KCA1 201214Z 21001KT M04/M07 A3019 RMK A01 T10421065  RH  084%=      5-min Rain = 0
KCA1 201215Z 21000KT M04/M06 A3019 RMK A01 T10411064  RH  084%=      5-min Rain = 0
KCA1 201216Z 20001KT M04/M06 A3019 RMK A01 T10411064  RH  084%=      5-min Rain = 0
KCA1 201217Z 20001KT M04/M06 A3019 RMK A01 T10411064  RH  084%=      5-min Rain = 0
KCA1 201218Z 20001KT M04/M06 A3019 RMK A01 T10411064  RH  084%=      5-min Rain = 0
KCA1 201219Z 20001KT M04/M06 A3019 RMK A01 T10411064  RH  084%=      5-min Rain = 0
KCA1 201220Z 21001KT M04/M06 A3019 RMK A01 T10401063  RH  084%=      5-min Rain = 0
KCA1 201221Z 21001KT M04/M06 A3019 RMK A01 T10391063  RH  083%=      5-min Rain = 0
KCA1 201222Z 21001KT M04/M06 A3019 RMK A01 T10401064  RH  083%=      5-min Rain = 0
KCA1 201223Z 21001KT M04/M07 A3019 RMK A01 T10401065  RH  083%=      5-min Rain = 0
KCA1 201224Z 21001KT M04/M07 A3019 RMK A01 T10411065  RH  083%=      5-min Rain = 0
KCA1 201225Z 21001KT M04/M07 A3019 RMK A01 T10421066  RH  083%=      5-min Rain = 0
KCA1 201226Z 20001KT M04/M07 A3019 RMK A01 T10431066  RH  084%=      5-min Rain = 0
KCA1 201227Z 20001KT M04/M07 A3019 RMK A01 T10441067  RH  084%=      5-min Rain = 0
KCA1 201228Z 20001KT M04/M07 A3019 RMK A01 T10441067  RH  084%=      5-min Rain = 0
KCA1 201229Z 20001KT M04/M07 A3019 RMK A01 T10441066  RH  085%=      5-min Rain = 0
KCA1 201230Z 19001KT M05/M07 A3019 RMK A01 T10451067  RH  085%=      5-min Rain = 0
KCA1 201231Z 19000KT M05/M07 A3019 RMK A01 T10461067  RH  085%=      5-min Rain = 0
KCA1 201232Z 19000KT M05/M07 A3019 RMK A01 T10461068  RH  085%=      5-min Rain = 0
KCA1 201233Z 00000KT M05/M07 A3019 RMK A01 T10461068  RH  085%=      5-min Rain = 0
KCA1 201234Z 00000KT M05/M07 A3019 RMK A01 T10471068  RH  085%=      5-min Rain = 0
KCA1 201235Z 00000KT M05/M07 A3019 RMK A01 T10481069  RH  086%=      5-min Rain = 0
KCA1 201236Z 00000KT M05/M07 A3019 RMK A01 T10491069  RH  086%=      5-min Rain = 0
KCA1 201237Z 19001KT M05/M07 A3019 RMK A01 T10501069  RH  087%=      5-min Rain = 0
KCA1 201238Z 19000KT M05/M07 A3019 RMK A01 T10501068  RH  087%=      5-min Rain = 0
KCA1 201239Z 00000KT M05/M07 A3019 RMK A01 T10491068  RH  087%=      5-min Rain = 0
KCA1 201240Z 00000KT M05/M07 A3019 RMK A01 T10501068  RH  087%=      5-min Rain = 0
KCA1 201241Z 00000KT M05/M07 A3019 RMK A01 T10501068  RH  087%=      5-min Rain = 0
KCA1 201242Z 18000KT M05/M07 A3019 RMK A01 T10501068  RH  087%=      5-min Rain = 0
KCA1 201243Z 18000KT M05/M07 A3019 RMK A01 T10511070  RH  087%=      5-min Rain = 0
KCA1 201244Z 18001KT M05/M07 A3019 RMK A01 T10531073  RH  086%=      5-min Rain = 0
KCA1 201245Z 36001KT M05/M07 A3019 RMK A01 T10541072  RH  087%=      5-min Rain = 0
KCA1 201246Z 35001KT M06/M07 A3019 RMK A01 T10551073  RH  087%=      5-min Rain = 0
KCA1 201247Z 36001KT M06/M07 A3019 RMK A01 T10561074  RH  087%=      5-min Rain = 0
KCA1 201248Z 00001KT M06/M07 A3019 RMK A01 T10571073  RH  088%=      5-min Rain = 0
KCA1 201249Z 00001KT M06/M07 A3019 RMK A01 T10561071  RH  089%=      5-min Rain = 0
KCA1 201250Z 00001KT M06/M07 A3019 RMK A01 T10551070  RH  089%=      5-min Rain = 0
KCA1 201251Z 00001KT M05/M07 A3019 RMK A01 T10541069  RH  089%=      5-min Rain = 0
KCA1 201252Z 34001KT M05/M07 A3019 RMK A01 T10541070  RH  089%=      5-min Rain = 0
KCA1 201253Z 32001KT M05/M07 A3019 RMK A01 T10541070  RH  089%=      5-min Rain = 0
KCA1 201254Z 31001KT M05/M07 A3019 RMK A01 T10521067  RH  089%=      5-min Rain = 0
KCA1 201255Z 32001KT M05/M07 A3019 RMK A01 T10501065  RH  089%=      5-min Rain = 0
KCA1 201256Z 32001KT M05/M07 A3019 RMK A01 T10501066  RH  089%=      5-min Rain = 0
KCA1 201257Z 32000KT M05/M07 A3018 RMK A01 T10521071  RH  087%=      5-min Rain = 0
KCA1 201258Z 00000KT M05/M07 A3019 RMK A01 T10541073  RH  086%=      5-min Rain = 0
KCA1 201259Z 00000KT M05/M07 A3019 RMK A01 T10541072  RH  087%=      5-min Rain = 0
KCA1 201300Z 26000KT M05/M07 A3019 RMK A01 T10541071  RH  088%=      5-min Rain = 0
KCA1 201301Z 26001KT M05/M07 A3019 RMK A01 T10541070  RH  088%=      5-min Rain = 0
KCA1 201302Z 25001KT M05/M07 A3019 RMK A01 T10531068  RH  089%=      5-min Rain = 0
KCA1 201303Z 25001KT M05/M07 A3019 RMK A01 T10511066  RH  089%=      5-min Rain = 0
KCA1 201304Z 25001KT M05/M07 A3019 RMK A01 T10511066  RH  089%=      5-min Rain = 0
KCA1 201305Z 24001KT M05/M07 A3019 RMK A01 T10511066  RH  089%=      5-min Rain = 0
KCA1 201306Z 23001KT M05/M07 A3019 RMK A01 T10511068  RH  088%=      5-min Rain = 0
KCA1 201307Z 23001KT M05/M07 A3019 RMK A01 T10531071  RH  087%=      5-min Rain = 0
KCA1 201308Z 23001KT M05/M07 A3019 RMK A01 T10541072  RH  087%=      5-min Rain = 0
KCA1 201309Z 24001KT M05/M07 A3018 RMK A01 T10541072  RH  087%=      5-min Rain = 0
KCA1 201310Z 24001KT M05/M07 A3018 RMK A01 T10541071  RH  088%=      5-min Rain = 0
KCA1 201311Z 24001KT M05/M07 A3018 RMK A01 T10541070  RH  089%=      5-min Rain = 0
KCA1 201312Z 23002KT M05/M07 A3018 RMK A01 T10541069  RH  089%=      5-min Rain = 0
KCA1 201313Z 23002KT M05/M07 A3018 RMK A01 T10531068  RH  090%=      5-min Rain = 0
KCA1 201314Z 22002KT M05/M07 A3018 RMK A01 T10511065  RH  090%=      5-min Rain = 0
KCA1 201315Z 21001KT M05/M06 A3018 RMK A01 T10501063  RH  091%=      5-min Rain = 0
KCA1 201316Z 19001KT M05/M06 A3018 RMK A01 T10491062  RH  090%=      5-min Rain = 0
KCA1 201317Z 15002KT M05/M06 A3019 RMK A01 T10481061  RH  090%=      5-min Rain = 0
KCA1 201318Z 13001KT M05/M06 A3019 RMK A01 T10471062  RH  089%=      5-min Rain = 0
KCA1 201319Z 12002KT M05/M06 A3019 RMK A01 T10481064  RH  088%=      5-min Rain = 0
KCA1 201320Z 10002KT M05/M07 A3019 RMK A01 T10501068  RH  087%=      5-min Rain = 0
KCA1 201321Z 09002KT M05/M07 A3019 RMK A01 T10511070  RH  087%=      5-min Rain = 0
KCA1 201322Z 09002KT M05/M07 A3019 RMK A01 T10521071  RH  087%=      5-min Rain = 0
KCA1 201323Z 08001KT M06/M07 A3019 RMK A01 T10551074  RH  086%=      5-min Rain = 0
KCA1 201324Z 07002KT M06/M08 A3019 RMK A01 T10581078  RH  086%=      5-min Rain = 0
KCA1 201325Z 08002KT M06/M08 A3019 RMK A01 T10611082  RH  085%=      5-min Rain = 0
KCA1 201326Z 10002KT M06/M08 A3019 RMK A01 T10641083  RH  086%=      5-min Rain = 0
KCA1 201327Z 12002KT M07/M08 A3019 RMK A01 T10651083  RH  087%=      5-min Rain = 0
KCA1 201328Z 12002KT M07/M08 A3019 RMK A01 T10661082  RH  088%=      5-min Rain = 0
KCA1 201329Z 13002KT M07/M08 A3019 RMK A01 T10651080  RH  090%=      5-min Rain = 0
KCA1 201330Z 13002KT M07/M08 A3019 RMK A01 T10651078  RH  091%=      5-min Rain = 0
KCA1 201331Z 14002KT M06/M07 A3019 RMK A01 T10631074  RH  092%=      5-min Rain = 0
KCA1 201332Z 13003KT M06/M07 A3019 RMK A01 T10601071  RH  092%=      5-min Rain = 0
KCA1 201333Z 13003KT M06/M07 A3019 RMK A01 T10591070  RH  092%=      5-min Rain = 0
KCA1 201334Z 14003KT M06/M07 A3019 RMK A01 T10581070  RH  091%=      5-min Rain = 0
KCA1 201335Z 15003KT M06/M07 A3019 RMK A01 T10571070  RH  091%=      5-min Rain = 0
KCA1 201336Z 15003KT M06/M07 A3019 RMK A01 T10561070  RH  090%=      5-min Rain = 0
KCA1 201337Z 14003KT M06/M07 A3019 RMK A01 T10551069  RH  090%=      5-min Rain = 0
KCA1 201338Z 15004KT M05/M07 A3019 RMK A01 T10541068  RH  089%=      5-min Rain = 0
KCA1 201339Z 15003KT M05/M07 A3019 RMK A01 T10531069  RH  089%=      5-min Rain = 0
KCA1 201340Z 15004KT M05/M07 A3019 RMK A01 T10531070  RH  088%=      5-min Rain = 0
KCA1 201341Z 15003KT M05/M07 A3019 RMK A01 T10531070  RH  088%=      5-min Rain = 0
KCA1 201342Z 15004KT M05/M07 A3019 RMK A01 T10531071  RH  088%=      5-min Rain = 0
KCA1 201343Z 16004KT M05/M07 A3019 RMK A01 T10531070  RH  088%=      5-min Rain = 0
KCA1 201344Z 16004KT M05/M07 A3019 RMK A01 T10531070  RH  088%=      5-min Rain = 0
KCA1 201345Z 16003KT M05/M07 A3019 RMK A01 T10521069  RH  088%=      5-min Rain = 0
KCA1 201346Z 17003KT M05/M07 A3019 RMK A01 T10521069  RH  087%=      5-min Rain = 0
KCA1 201347Z 18003KT M05/M07 A3019 RMK A01 T10501068  RH  087%=      5-min Rain = 0
KCA1 201348Z 18003KT M05/M07 A3019 RMK A01 T10501069  RH  087%=      5-min Rain = 0
KCA1 201349Z 18003KT M05/M07 A3019 RMK A01 T10501069  RH  086%=      5-min Rain = 0
KCA1 201350Z 18003KT M05/M07 A3019 RMK A01 T10501071  RH  086%=      5-min Rain = 0
KCA1 201351Z 18003KT M05/M07 A3019 RMK A01 T10501071  RH  086%=      5-min Rain = 0
KCA1 201352Z 18003KT M05/M07 A3019 RMK A01 T10511070  RH  086%=      5-min Rain = 0
KCA1 201353Z 20004KT M05/M07 A3019 RMK A01 T10501070  RH  086%=      5-min Rain = 0
KCA1 201354Z 20003KT M05/M07 A3019 RMK A01 T10481068  RH  086%=      5-min Rain = 0
KCA1 201355Z 19003KT M05/M07 A3019 RMK A01 T10471068  RH  085%=      5-min Rain = 0
KCA1 201356Z 18003KT M05/M07 A3019 RMK A01 T10451067  RH  085%=      5-min Rain = 0
KCA1 201357Z 19004KT M04/M07 A3019 RMK A01 T10421066  RH  084%=      5-min Rain = 0
KCA1 201358Z 19003KT M04/M07 A3019 RMK A01 T10411066  RH  082%=      5-min Rain = 0
KCA1 201359Z 19003KT M04/M07 A3019 RMK A01 T10391066  RH  082%=      5-min Rain = 0
KCA1 201400Z 20004KT M04/M06 A3019 RMK A01 T10371064  RH  082%=      5-min Rain = 0
KCA1 201401Z 20004KT M04/M06 A3019 RMK A01 T10361063  RH  081%=      5-min Rain = 0
KCA1 201402Z 19003KT M04/M06 A3019 RMK A01 T10351063  RH  081%=      5-min Rain = 0
KCA1 201403Z 19003KT M04/M06 A3019 RMK A01 T10351064  RH  080%=      5-min Rain = 0
KCA1 201404Z 19003KT M04/M06 A3019 RMK A01 T10351064  RH  080%=      5-min Rain = 0
KCA1 201405Z 19003KT M04/M07 A3019 RMK A01 T10351065  RH  080%=      5-min Rain = 0
KCA1 201406Z 19004KT M03/M06 A302 RMK A01 T10341064  RH  080%=      5-min Rain = 0
KCA1 201407Z 19005KT M03/M06 A302 RMK A01 T10341064  RH  080%=      5-min Rain = 0
KCA1 201408Z 18004KT M03/M06 A302 RMK A01 T10331064  RH  079%=      5-min Rain = 0
KCA1 201409Z 17004KT M03/M06 A302 RMK A01 T10331064  RH  079%=      5-min Rain = 0
KCA1 201410Z 16004KT M03/M06 A3019 RMK A01 T10321063  RH  080%=      5-min Rain = 0
KCA1 201411Z 17004KT M03/M06 A3019 RMK A01 T10321062  RH  080%=      5-min Rain = 0
KCA1 201412Z 17003KT M03/M06 A3019 RMK A01 T10331062  RH  080%=      5-min Rain = 0
KCA1 201413Z 16003KT M03/M06 A3019 RMK A01 T10331063  RH  080%=      5-min Rain = 0
KCA1 201414Z 16004KT M03/M06 A3019 RMK A01 T10331063  RH  080%=      5-min Rain = 0
KCA1 201415Z 17005KT M03/M06 A3019 RMK A01 T10341063  RH  080%=      5-min Rain = 0
KCA1 201416Z 17005KT M03/M06 A3019 RMK A01 T10331063  RH  080%=      5-min Rain = 0
KCA1 201417Z 18006KT M03/M06 A3019 RMK A01 T10331062  RH  080%=      5-min Rain = 0
KCA1 201418Z 18007KT M03/M06 A3019 RMK A01 T10321062  RH  080%=      5-min Rain = 0
KCA1 201419Z 20007KT M03/M06 A302 RMK A01 T10301062  RH  079%=      5-min Rain = 0
KCA1 201420Z 19005KT M03/M06 A302 RMK A01 T10291062  RH  078%=      5-min Rain = 0
KCA1 201421Z 18003KT M03/M06 A302 RMK A01 T10281062  RH  078%=      5-min Rain = 0
KCA1 201422Z 18003KT M03/M06 A302 RMK A01 T10281062  RH  077%=      5-min Rain = 0
KCA1 201423Z 18003KT M03/M06 A302 RMK A01 T10281062  RH  077%=      5-min Rain = 0
KCA1 201424Z 19005KT M03/M06 A302 RMK A01 T10291062  RH  078%=      5-min Rain = 0
KCA1 201425Z 20004KT M03/M06 A302 RMK A01 T10281062  RH  077%=      5-min Rain = 0
KCA1 201426Z 19004KT M03/M06 A302 RMK A01 T10271062  RH  077%=      5-min Rain = 0
KCA1 201427Z 20003KT M03/M06 A302 RMK A01 T10271062  RH  077%=      5-min Rain = 0
KCA1 201428Z 18003KT M03/M06 A302 RMK A01 T10271062  RH  077%=      5-min Rain = 0
KCA1 201429Z 17003KT M03/M06 A302 RMK A01 T10261063  RH  076%=      5-min Rain = 0
KCA1 201430Z 16003KT M03/M06 A302 RMK A01 T10261062  RH  076%=      5-min Rain = 0
KCA1 201431Z 17003KT M03/M06 A302 RMK A01 T10251058  RH  078%=      5-min Rain = 0
KCA1 201432Z 16003KT M03/M06 A302 RMK A01 T10251056  RH  079%=      5-min Rain = 0
KCA1 201433Z 17003KT M03/M06 A302 RMK A01 T10251056  RH  079%=      5-min Rain = 0
KCA1 201434Z 17003KT M02/M06 A302 RMK A01 T10241057  RH  078%=      5-min Rain = 0
KCA1 201435Z 16003KT M02/M06 A302 RMK A01 T10241056  RH  078%=      5-min Rain = 0
KCA1 201436Z 15003KT M02/M06 A302 RMK A01 T10231056  RH  078%=      5-min Rain = 0
KCA1 201437Z 15004KT M02/M06 A302 RMK A01 T10221056  RH  078%=      5-min Rain = 0
KCA1 201438Z 14004KT M02/M06 A302 RMK A01 T10221056  RH  078%=      5-min Rain = 0
KCA1 201439Z 15004KT M02/M06 A302 RMK A01 T10221055  RH  078%=      5-min Rain = 0
KCA1 201440Z 15004KT M02/M05 A302 RMK A01 T10221054  RH  078%=      5-min Rain = 0
KCA1 201441Z 15005KT M02/M05 A302 RMK A01 T10211054  RH  078%=      5-min Rain = 0
KCA1 201442Z 15005KT M02/M05 A302 RMK A01 T10211053  RH  078%=      5-min Rain = 0
KCA1 201443Z 15004KT M02/M05 A302 RMK A01 T10201052  RH  079%=      5-min Rain = 0
KCA1 201444Z 16004KT M02/M05 A3019 RMK A01 T10191050  RH  079%=      5-min Rain = 0
KCA1 201445Z 17004KT M02/M05 A3019 RMK A01 T10191051  RH  079%=      5-min Rain = 0
KCA1 201446Z 17004KT M02/M05 A3019 RMK A01 T10181050  RH  078%=      5-min Rain = 0
KCA1 201447Z 15003KT M02/M05 A3019 RMK A01 T10171051  RH  078%=      5-min Rain = 0
KCA1 201448Z 14003KT M02/M05 A3019 RMK A01 T10161051  RH  077%=      5-min Rain = 0
KCA1 201449Z 13003KT M02/M05 A3019 RMK A01 T10161051  RH  077%=      5-min Rain = 0
KCA1 201450Z 13003KT M02/M05 A3019 RMK A01 T10151050  RH  077%=      5-min Rain = 0
KCA1 201451Z 13003KT M02/M05 A3019 RMK A01 T10151049  RH  078%=      5-min Rain = 0
KCA1 201452Z 13003KT M02/M05 A3019 RMK A01 T10151050  RH  077%=      5-min Rain = 0
KCA1 201453Z 13004KT M02/M05 A3019 RMK A01 T10151051  RH  077%=      5-min Rain = 0
KCA1 201454Z 14004KT M02/M05 A3019 RMK A01 T10151051  RH  076%=      5-min Rain = 0
KCA1 201455Z 14003KT M02/M05 A3019 RMK A01 T10151051  RH  076%=      5-min Rain = 0
KCA1 201456Z 14004KT M01/M05 A3019 RMK A01 T10141051  RH  076%=      5-min Rain = 0
KCA1 201457Z 15005KT M01/M05 A3019 RMK A01 T10141051  RH  076%=      5-min Rain = 0
KCA1 201458Z 15005KT M01/M05 A3019 RMK A01 T10141051  RH  076%=      5-min Rain = 0
KCA1 201459Z 15004KT M01/M05 A3019 RMK A01 T10131050  RH  076%=      5-min Rain = 0
KCA1 201500Z 15004KT M01/M05 A3019 RMK A01 T10131050  RH  076%=      5-min Rain = 0
KCA1 201501Z 15005KT M01/M05 A3019 RMK A01 T10121049  RH  076%=      5-min Rain = 0
KCA1 201502Z 15005KT M01/M05 A3019 RMK A01 T10121050  RH  075%=      5-min Rain = 0
KCA1 201503Z 15005KT M01/M05 A3019 RMK A01 T10121050  RH  075%=      5-min Rain = 0
KCA1 201504Z 14005KT M01/M05 A3019 RMK A01 T10111050  RH  075%=      5-min Rain = 0
KCA1 201505Z 15004KT M01/M05 A3019 RMK A01 T10111048  RH  075%=      5-min Rain = 0
KCA1 201506Z 14005KT M01/M05 A3019 RMK A01 T10101050  RH  075%=      5-min Rain = 0
KCA1 201507Z 14005KT M01/M05 A3019 RMK A01 T10101052  RH  073%=      5-min Rain = 0
KCA1 201508Z 15005KT M01/M05 A3019 RMK A01 T10111053  RH  073%=      5-min Rain = 0
KCA1 201509Z 15005KT M01/M05 A3019 RMK A01 T10111053  RH  073%=      5-min Rain = 0
KCA1 201510Z 16005KT M01/M05 A3019 RMK A01 T10111053  RH  073%=      5-min Rain = 0
KCA1 201511Z 16005KT M01/M05 A3019 RMK A01 T10111054  RH  073%=      5-min Rain = 0
KCA1 201512Z 15006KT M01/M05 A3019 RMK A01 T10101053  RH  072%=      5-min Rain = 0
KCA1 201513Z 16005KT M01/M05 A3019 RMK A01 T10101053  RH  073%=      5-min Rain = 0
KCA1 201514Z 17005KT M01/M05 A3019 RMK A01 T10091053  RH  072%=      5-min Rain = 0
KCA1 201515Z 16007KT M01/M05 A3019 RMK A01 T10091052  RH  072%=      5-min Rain = 0
KCA1 201516Z 16006KT M01/M05 A3019 RMK A01 T10081053  RH  072%=      5-min Rain = 0
KCA1 201517Z 16006KT M01/M05 A3019 RMK A01 T10081053  RH  072%=      5-min Rain = 0
KCA1 201518Z 17004KT M01/M05 A3019 RMK A01 T10081053  RH  072%=      5-min Rain = 0
KCA1 201519Z 17005KT M01/M05 A3019 RMK A01 T10091052  RH  072%=      5-min Rain = 0
KCA1 201520Z 17006KT M01/M05 A3019 RMK A01 T10091052  RH  072%=      5-min Rain = 0
KCA1 201521Z 16006KT M01/M05 A3019 RMK A01 T10081051  RH  073%=      5-min Rain = 0
KCA1 201522Z 16006KT M01/M05 A3019 RMK A01 T10081051  RH  072%=      5-min Rain = 0
KCA1 201523Z 16005KT M01/M05 A3019 RMK A01 T10081052  RH  072%=      5-min Rain = 0
KCA1 201524Z 16006KT M01/M05 A3019 RMK A01 T10081052  RH  072%=      5-min Rain = 0
KCA1 201525Z 16005KT M01/M05 A3019 RMK A01 T10071051  RH  072%=      5-min Rain = 0
KCA1 201526Z 16005KT M01/M05 A3019 RMK A01 T10071049  RH  073%=      5-min Rain = 0
KCA1 201527Z 16006KT M01/M05 A3019 RMK A01 T10061048  RH  073%=      5-min Rain = 0
KCA1 201528Z 16005KT M01/M05 A3019 RMK A01 T10061049  RH  073%=      5-min Rain = 0
KCA1 201529Z 16006KT M01/M05 A3019 RMK A01 T10061048  RH  073%=      5-min Rain = 0
KCA1 201530Z 16006KT M01/M05 A3019 RMK A01 T10051049  RH  072%=      5-min Rain = 0
KCA1 201531Z 16004KT M01/M05 A3019 RMK A01 T10051050  RH  072%=      5-min Rain = 0
KCA1 201532Z 16005KT M01/M05 A3019 RMK A01 T10051048  RH  073%=      5-min Rain = 0
KCA1 201533Z 15004KT M01/M05 A3019 RMK A01 T10051048  RH  072%=      5-min Rain = 0
KCA1 201534Z 16005KT M00/M05 A3019 RMK A01 T10041048  RH  072%=      5-min Rain = 0
KCA1 201535Z 15006KT M00/M05 A3019 RMK A01 T10031048  RH  072%=      5-min Rain = 0
KCA1 201536Z 16005KT M00/M05 A3019 RMK A01 T10031049  RH  071%=      5-min Rain = 0
KCA1 201537Z 16005KT M00/M05 A3019 RMK A01 T10021048  RH  071%=      5-min Rain = 0
KCA1 201538Z 16007KT M00/M05 A3019 RMK A01 T10011046  RH  072%=      5-min Rain = 0
KCA1 201539Z 16006KT M00/M05 A3019 RMK A01 T10011049  RH  070%=      5-min Rain = 0
KCA1 201540Z 15005KT M00/M05 A3019 RMK A01 T10011049  RH  070%=      5-min Rain = 0
KCA1 201541Z 16006KT M00/M05 A3019 RMK A01 T10011048  RH  071%=      5-min Rain = 0
KCA1 201542Z 16007KT 00/05 A3018 RMK A01 T00-00-47  RH  071%=      5-min Rain = 0
KCA1 201543Z 17007KT 00/05 A3018 RMK A01 T00000-48  RH  070%=      5-min Rain = 0
KCA1 201544Z 16008KT 00/05 A3018 RMK A01 T00-00-48  RH  070%=      5-min Rain = 0
KCA1 201545Z 16007KT 00/05 A3018 RMK A01 T00-00-48  RH  070%=      5-min Rain = 0
KCA1 201546Z 17007KT 00/05 A3018 RMK A01 T00000-47  RH  071%=      5-min Rain = 0
KCA1 201547Z 16008KT 00/M05 A3018 RMK A01 T00011046  RH  071%=      5-min Rain = 0
KCA1 201548Z 17009KT 00/M05 A3018 RMK A01 T00021046  RH  070%=      5-min Rain = 0
KCA1 201549Z 17009KT 00/M05 A3018 RMK A01 T00021047  RH  070%=      5-min Rain = 0
KCA1 201550Z 17009KT 00/M05 A3018 RMK A01 T00021047  RH  069%=      5-min Rain = 0
KCA1 201551Z 17011KT 00/M05 A3018 RMK A01 T00031046  RH  070%=      5-min Rain = 0
KCA1 201552Z 18011KT 00/M05 A3017 RMK A01 T00031047  RH  069%=      5-min Rain = 0
KCA1 201553Z 17010KT 00/M05 A3017 RMK A01 T00041048  RH  068%=      5-min Rain = 0
KCA1 201554Z 17010KT 01/M05 A3017 RMK A01 T00051047  RH  068%=      5-min Rain = 0
KCA1 201555Z 16009KT 01/M05 A3017 RMK A01 T00061045  RH  068%=      5-min Rain = 0
KCA1 201556Z 17010KT 01/M05 A3017 RMK A01 T00081045  RH  068%=      5-min Rain = 0
KCA1 201557Z 16008KT 01/M05 A3017 RMK A01 T00081046  RH  067%=      5-min Rain = 0
KCA1 201558Z 16008KT 01/M04 A3017 RMK A01 T00091044  RH  068%=      5-min Rain = 0
KCA1 201559Z 17007KT 01/M04 A3017 RMK A01 T00101043  RH  068%=      5-min Rain = 0
KCA1 201600Z 17007KT 01/M04 A3018 RMK A01 T00111042  RH  068%=      5-min Rain = 0
KCA1 201601Z 17008KT 01/M04 A3018 RMK A01 T00121042  RH  067%=      5-min Rain = 0
KCA1 201602Z 16009KT 01/M04 A3018 RMK A01 T00121044  RH  066%=      5-min Rain = 0
KCA1 201603Z 17009KT 01/M05 A3018 RMK A01 T00121045  RH  066%=      5-min Rain = 0
KCA1 201604Z 16008KT 01/M05 A3018 RMK A01 T00121046  RH  065%=      5-min Rain = 0
KCA1 201605Z 16008KT 01/M05 A3018 RMK A01 T00121045  RH  066%=      5-min Rain = 0
KCA1 201606Z 16008KT 01/M04 A3018 RMK A01 T00141043  RH  065%=      5-min Rain = 0
KCA1 201607Z 17008KT 02/M04 A3018 RMK A01 T00151044  RH  065%=      5-min Rain = 0
KCA1 201608Z 17010KT 02/M04 A3018 RMK A01 T00161044  RH  064%=      5-min Rain = 0
KCA1 201609Z 17011KT 02/M05 A3018 RMK A01 T00161046  RH  063%=      5-min Rain = 0
KCA1 201610Z 18009KT 02/M05 A3018 RMK A01 T00151048  RH  063%=      5-min Rain = 0
KCA1 201611Z 18008KT 02/M05 A3018 RMK A01 T00151047  RH  064%=      5-min Rain = 0
KCA1 201612Z 18009KT 02/M05 A3018 RMK A01 T00151046  RH  064%=      5-min Rain = 0
KCA1 201613Z 18008KT 02/M05 A3018 RMK A01 T00161046  RH  063%=      5-min Rain = 0
KCA1 201614Z 18010KT 02/M05 A3018 RMK A01 T00161046  RH  063%=      5-min Rain = 0
KCA1 201615Z 18008KT 02/M05 A3018 RMK A01 T00171048  RH  062%=      5-min Rain = 0
KCA1 201616Z 18007KT 02/M05 A3019 RMK A01 T00171048  RH  062%=      5-min Rain = 0
KCA1 201617Z 19006KT 02/M05 A3019 RMK A01 T00171048  RH  062%=      5-min Rain = 0
KCA1 201618Z 19007KT 02/M05 A3019 RMK A01 T00181047  RH  062%=      5-min Rain = 0
KCA1 201619Z 19008KT 02/M05 A3019 RMK A01 T00191045  RH  062%=      5-min Rain = 0
KCA1 201620Z 18009KT 02/M05 A3019 RMK A01 T00191047  RH  061%=      5-min Rain = 0
KCA1 201621Z 18008KT 02/M05 A3019 RMK A01 T00191048  RH  061%=      5-min Rain = 0
KCA1 201622Z 18008KT 02/M05 A3019 RMK A01 T00191048  RH  061%=      5-min Rain = 0
KCA1 201623Z 18009KT 02/M05 A3019 RMK A01 T00191048  RH  061%=      5-min Rain = 0
KCA1 201624Z 18008KT 02/M05 A3019 RMK A01 T00191048  RH  061%=      5-min Rain = 0
KCA1 201625Z 18008KT 02/M05 A3019 RMK A01 T00211046  RH  062%=      5-min Rain = 0
KCA1 201626Z 18009KT 02/M05 A3019 RMK A01 T00221045  RH  061%=      5-min Rain = 0
KCA1 201627Z 18008KT 02/M05 A3019 RMK A01 T00221046  RH  061%=      5-min Rain = 0
KCA1 201628Z 18009KT 02/M05 A3019 RMK A01 T00231045  RH  061%=      5-min Rain = 0
KCA1 201629Z 18010KT 03/M04 A3019 RMK A01 T00251043  RH  061%=      5-min Rain = 0
KCA1 201630Z 19010KT 03/M04 A3019 RMK A01 T00261044  RH  060%=      5-min Rain = 0
KCA1 201631Z 19009KT 03/M05 A3019 RMK A01 T00261045  RH  059%=      5-min Rain = 0
KCA1 201632Z 19010KT 03/M05 A3019 RMK A01 T00271045  RH  059%=      5-min Rain = 0
KCA1 201633Z 18011KT 03/M05 A3019 RMK A01 T00271045  RH  059%=      5-min Rain = 0
KCA1 201634Z 18009KT 03/M04 A3019 RMK A01 T00281044  RH  059%=      5-min Rain = 0
KCA1 201635Z 19009KT 03/M04 A3019 RMK A01 T00291043  RH  059%=      5-min Rain = 0
KCA1 201636Z 17010KT 03/M04 A3018 RMK A01 T00301044  RH  058%=      5-min Rain = 0
KCA1 201637Z 18009KT 03/M04 A3018 RMK A01 T00301044  RH  058%=      5-min Rain = 0
KCA1 201638Z 18012KT 03/M04 A3018 RMK A01 T00321042  RH  058%=      5-min Rain = 0
KCA1 201639Z 18011KT 03/M04 A3018 RMK A01 T00331043  RH  057%=      5-min Rain = 0
KCA1 201640Z 18009KT 03/M04 A3018 RMK A01 T00331044  RH  057%=      5-min Rain = 0
KCA1 201641Z 17011KT 03/M04 A3018 RMK A01 T00331043  RH  057%=      5-min Rain = 0
KCA1 201642Z 18010KT 03/M04 A3018 RMK A01 T00331044  RH  057%=      5-min Rain = 0
KCA1 201643Z 19009KT 03/M04 A3018 RMK A01 T00321044  RH  057%=      5-min Rain = 0
KCA1 201644Z 19011KT 03/M04 A3018 RMK A01 T00321043  RH  058%=      5-min Rain = 0
KCA1 201645Z 19011KT 03/M04 A3018 RMK A01 T00321044  RH  057%=      5-min Rain = 0
KCA1 201646Z 19012KT 03/M04 A3018 RMK A01 T00331043  RH  057%=      5-min Rain = 0
KCA1 201647Z 19010KT 03/M04 A3018 RMK A01 T00331044  RH  057%=      5-min Rain = 0
KCA1 201648Z 19010KT 03/M04 A3018 RMK A01 T00341043  RH  057%=      5-min Rain = 0
KCA1 201649Z 19011KT 04/M04 A3018 RMK A01 T00361041  RH  057%=      5-min Rain = 0
KCA1 201650Z 19013KT 04/M04 A3018 RMK A01 T00381041  RH  056%=      5-min Rain = 0
KCA1 201651Z 19012KT 04/M04 A3018 RMK A01 T00381042  RH  056%=      5-min Rain = 0
KCA1 201652Z 20012KT 04/M04 A3018 RMK A01 T00381042  RH  056%=      5-min Rain = 0
KCA1 201653Z 20010KT 04/M04 A3018 RMK A01 T00391041  RH  056%=      5-min Rain = 0
KCA1 201654Z 20009KT 04/M04 A3018 RMK A01 T00401041  RH  056%=      5-min Rain = 0
KCA1 201655Z 19013KT 04/M04 A3018 RMK A01 T00411040  RH  056%=      5-min Rain = 0
KCA1 201656Z 19012KT 04/M04 A3018 RMK A01 T00411041  RH  055%=      5-min Rain = 0
KCA1 201657Z 19012KT 04/M04 A3018 RMK A01 T00411041  RH  055%=      5-min Rain = 0
KCA1 201658Z 19010KT 04/M04 A3018 RMK A01 T00411041  RH  055%=      5-min Rain = 0
KCA1 201659Z 18011KT 04/M04 A3018 RMK A01 T00421041  RH  055%=      5-min Rain = 0
KCA1 201700Z 18012KT 04/M04 A3018 RMK A01 T00431040  RH  055%=      5-min Rain = 0
KCA1 201701Z 17011KT 04/M04 A3018 RMK A01 T00441041  RH  054%=      5-min Rain = 0
KCA1 201702Z 17009KT 05/M04 A3018 RMK A01 T00451039  RH  054%=      5-min Rain = 0
KCA1 201703Z 18010KT 05/M04 A3018 RMK A01 T00481036  RH  054%=      5-min Rain = 0
KCA1 201704Z 17008KT 05/M04 A3018 RMK A01 T00491038  RH  053%=      5-min Rain = 0
KCA1 201705Z 18011KT 05/M04 A3017 RMK A01 T00481039  RH  053%=      5-min Rain = 0
KCA1 201706Z 17011KT 05/M04 A3017 RMK A01 T00491039  RH  053%=      5-min Rain = 0
KCA1 201707Z 18010KT 05/M04 A3017 RMK A01 T00491039  RH  053%=      5-min Rain = 0
KCA1 201708Z 18010KT 05/M04 A3017 RMK A01 T00511037  RH  053%=      5-min Rain = 0
KCA1 201709Z 18010KT 05/M04 A3017 RMK A01 T00521037  RH  052%=      5-min Rain = 0
KCA1 201710Z 17009KT 05/M04 A3017 RMK A01 T00521038  RH  052%=      5-min Rain = 0
KCA1 201711Z 17010KT 05/M04 A3017 RMK A01 T00531037  RH  052%=      5-min Rain = 0
KCA1 201712Z 17010KT 06/M04 A3017 RMK A01 T00561035  RH  052%=      5-min Rain = 0
KCA1 201713Z 19009KT 06/M04 A3017 RMK A01 T00581035  RH  051%=      5-min Rain = 0
KCA1 201714Z 20009KT 06/M04 A3017 RMK A01 T00591035  RH  051%=      5-min Rain = 0
KCA1 201715Z 18010KT 06/M04 A3017 RMK A01 T00581036  RH  051%=      5-min Rain = 0
KCA1 201716Z 18009KT 06/M04 A3017 RMK A01 T00581036  RH  051%=      5-min Rain = 0
KCA1 201717Z 19010KT 06/M04 A3016 RMK A01 T00591035  RH  051%=      5-min Rain = 0
KCA1 201718Z 18010KT 06/M04 A3016 RMK A01 T00601036  RH  050%=      5-min Rain = 0
KCA1 201719Z 18011KT 06/M04 A3016 RMK A01 T00601035  RH  050%=      5-min Rain = 0
KCA1 201720Z 19011KT 06/M03 A3016 RMK A01 T00621034  RH  050%=      5-min Rain = 0
KCA1 201721Z 18012KT 06/M04 A3016 RMK A01 T00621035  RH  050%=      5-min Rain = 0
KCA1 201722Z 18010KT 06/M04 A3016 RMK A01 T00611036  RH  050%=      5-min Rain = 0
KCA1 201723Z 18010KT 06/M04 A3017 RMK A01 T00611036  RH  050%=      5-min Rain = 0
KCA1 201724Z 19012KT 06/M03 A3016 RMK A01 T00631034  RH  050%=      5-min Rain = 0
KCA1 201725Z 19013KT 06/M03 A3016 RMK A01 T00641034  RH  050%=      5-min Rain = 0
KCA1 201726Z 20010KT 06/M03 A3016 RMK A01 T00641034  RH  049%=      5-min Rain = 0
KCA1 201727Z 20010KT 07/M03 A3017 RMK A01 T00651034  RH  049%=      5-min Rain = 0
KCA1 201728Z 20012KT 07/M03 A3016 RMK A01 T00681031  RH  049%=      5-min Rain = 0
KCA1 201729Z 21014KT 07/M03 A3016 RMK A01 T00691034  RH  048%=      5-min Rain = 0
KCA1 201730Z 21013KT 07/M04 A3016 RMK A01 T00681035  RH  048%=      5-min Rain = 0
KCA1 201731Z 22012KT 07/M03 A3016 RMK A01 T00681034  RH  048%=      5-min Rain = 0
KCA1 201732Z 21010KT 07/M04 A3016 RMK A01 T00671035  RH  048%=      5-min Rain = 0
KCA1 201733Z 19011KT 07/M03 A3016 RMK A01 T00691033  RH  048%=      5-min Rain = 0
KCA1 201734Z 19012KT 07/M03 A3016 RMK A01 T00701033  RH  048%=      5-min Rain = 0
KCA1 201735Z 19013KT 07/M03 A3016 RMK A01 T00721032  RH  047%=      5-min Rain = 0
KCA1 201736Z 18014KT 07/M03 A3015 RMK A01 T00721034  RH  047%=      5-min Rain = 0
KCA1 201737Z 19013KT 07/M03 A3015 RMK A01 T00711034  RH  047%=      5-min Rain = 0
KCA1 201738Z 21013KT 07/M03 A3015 RMK A01 T00731031  RH  048%=      5-min Rain = 0
KCA1 201739Z 19011KT 08/M03 A3016 RMK A01 T00751031  RH  047%=      5-min Rain = 0
KCA1 201740Z 18010KT 08/M03 A3016 RMK A01 T00781030  RH  047%=      5-min Rain = 0
KCA1 201741Z 20012KT 08/M03 A3016 RMK A01 T00791029  RH  046%=      5-min Rain = 0
KCA1 201742Z 21013KT 08/M03 A3016 RMK A01 T00781032  RH  046%=      5-min Rain = 0
KCA1 201743Z 21013KT 08/M03 A3015 RMK A01 T00761033  RH  046%=      5-min Rain = 0
KCA1 201744Z 21010KT 08/M03 A3015 RMK A01 T00761031  RH  047%=      5-min Rain = 0
KCA1 201745Z 21012KT 08/M03 A3015 RMK A01 T00761031  RH  047%=      5-min Rain = 0
KCA1 201746Z 21013KT 08/M03 A3015 RMK A01 T00761031  RH  047%=      5-min Rain = 0
KCA1 201747Z 21011KT 08/M03 A3015 RMK A01 T00761031  RH  047%=      5-min Rain = 0
KCA1 201748Z 21012KT 08/M03 A3015 RMK A01 T00761030  RH  047%=      5-min Rain = 0
KCA1 201749Z 21011KT 08/M03 A3015 RMK A01 T00761031  RH  046%=      5-min Rain = 0
KCA1 201750Z 21010KT 08/M03 A3015 RMK A01 T00751031  RH  047%=      5-min Rain = 0
KCA1 201751Z 18011KT 08/M03 A3015 RMK A01 T00781028  RH  047%=      5-min Rain = 0
KCA1 201752Z 18015KT 08/M03 A3014 RMK A01 T00801029  RH  046%=      5-min Rain = 0
KCA1 201753Z 18013KT 08/M03 A3014 RMK A01 T00801029  RH  046%=      5-min Rain = 0
KCA1 201754Z 19014KT 08/M03 A3014 RMK A01 T00811029  RH  046%=      5-min Rain = 0
KCA1 201755Z 20013KT 08/M03 A3015 RMK A01 T00811030  RH  045%=      5-min Rain = 0
KCA1 201756Z 19013KT 08/M03 A3015 RMK A01 T00791031  RH  046%=      5-min Rain = 0
KCA1 201757Z 19015KT 08/M03 A3014 RMK A01 T00791030  RH  046%=      5-min Rain = 0
KCA1 201758Z 18012KT 08/M03 A3015 RMK A01 T00781030  RH  046%=      5-min Rain = 0
KCA1 201759Z 19013KT 08/M03 A3015 RMK A01 T00791029  RH  046%=      5-min Rain = 0
KCA1 201800Z 18012KT 08/M03 A3015 RMK A01 T00801029  RH  046%=      5-min Rain = 0
KCA1 201801Z 19013KT 08/M03 A3015 RMK A01 T00821028  RH  046%=      5-min Rain = 0
KCA1 201802Z 19010KT 08/M03 A3015 RMK A01 T00821028  RH  046%=      5-min Rain = 0
KCA1 201803Z 18012KT 09/M03 A3015 RMK A01 T00851027  RH  045%=      5-min Rain = 0
KCA1 201804Z 20012KT 09/M03 A3014 RMK A01 T00851028  RH  045%=      5-min Rain = 0
KCA1 201805Z 21011KT 08/M03 A3014 RMK A01 T00841029  RH  045%=      5-min Rain = 0
KCA1 201806Z 20008KT 08/M03 A3014 RMK A01 T00821030  RH  045%=      5-min Rain = 0
KCA1 201807Z 19010KT 08/M03 A3014 RMK A01 T00831027  RH  046%=      5-min Rain = 0
KCA1 201808Z 18013KT 09/M03 A3014 RMK A01 T00851027  RH  045%=      5-min Rain = 0
KCA1 201809Z 19012KT 09/M03 A3014 RMK A01 T00851028  RH  045%=      5-min Rain = 0
KCA1 201810Z 19010KT 08/M03 A3014 RMK A01 T00831030  RH  045%=      5-min Rain = 0
KCA1 201811Z 21013KT 08/M03 A3014 RMK A01 T00821029  RH  045%=      5-min Rain = 0
KCA1 201812Z 20011KT 08/M03 A3014 RMK A01 T00831028  RH  045%=      5-min Rain = 0
KCA1 201813Z 18012KT 09/M03 A3014 RMK A01 T00851027  RH  045%=      5-min Rain = 0
KCA1 201814Z 19010KT 09/M03 A3013 RMK A01 T00871027  RH  045%=      5-min Rain = 0
KCA1 201815Z 20009KT 09/M03 A3013 RMK A01 T00891026  RH  044%=      5-min Rain = 0
KCA1 201816Z 18013KT 09/M03 A3013 RMK A01 T00891027  RH  044%=      5-min Rain = 0
KCA1 201817Z 18012KT 09/M03 A3013 RMK A01 T00891028  RH  044%=      5-min Rain = 0
KCA1 201818Z 18013KT 09/M03 A3013 RMK A01 T00901026  RH  044%=      5-min Rain = 0
KCA1 201819Z 18012KT 09/M03 A3013 RMK A01 T00911028  RH  043%=      5-min Rain = 0
KCA1 201820Z 19011KT 09/M03 A3013 RMK A01 T00891029  RH  043%=      5-min Rain = 0
KCA1 201821Z 19011KT 09/M03 A3013 RMK A01 T00881029  RH  044%=      5-min Rain = 0
KCA1 201822Z 19010KT 09/M03 A3013 RMK A01 T00881029  RH  044%=      5-min Rain = 0
KCA1 201823Z 19011KT 09/M03 A3013 RMK A01 T00901027  RH  044%=      5-min Rain = 0
KCA1 201824Z 18011KT 09/M03 A3013 RMK A01 T00911028  RH  043%=      5-min Rain = 0
KCA1 201825Z 18009KT 09/M03 A3013 RMK A01 T00911028  RH  043%=      5-min Rain = 0
KCA1 201826Z 19009KT 09/M03 A3013 RMK A01 T00921027  RH  043%=      5-min Rain = 0
KCA1 201827Z 19007KT 10/M03 A3013 RMK A01 T00951026  RH  043%=      5-min Rain = 0
KCA1 201828Z 18008KT 10/M02 A3013 RMK A01 T00981024  RH  042%=      5-min Rain = 0
KCA1 201829Z 19008KT 10/M03 A3012 RMK A01 T00991026  RH  041%=      5-min Rain = 0
KCA1 201830Z 20011KT 10/M03 A3012 RMK A01 T01001025  RH  042%=      5-min Rain = 0
KCA1 201831Z 19010KT 10/M03 A3012 RMK A01 T01011027  RH  041%=      5-min Rain = 0
KCA1 201832Z 19009KT 10/M03 A3012 RMK A01 T00991028  RH  041%=      5-min Rain = 0
KCA1 201833Z 20011KT 10/M03 A3012 RMK A01 T00991027  RH  041%=      5-min Rain = 0
KCA1 201834Z 21011KT 10/M03 A3012 RMK A01 T01021026  RH  041%=      5-min Rain = 0
KCA1 201835Z 20009KT 10/M03 A3012 RMK A01 T01021027  RH  040%=      5-min Rain = 0
KCA1 201836Z 18012KT 10/M03 A3012 RMK A01 T01031027  RH  040%=      5-min Rain = 0
KCA1 201837Z 18012KT 10/M03 A3012 RMK A01 T01041027  RH  040%=      5-min Rain = 0
KCA1 201838Z 21011KT 11/M03 A3012 RMK A01 T01051027  RH  039%=      5-min Rain = 0
KCA1 201839Z 20012KT 11/M03 A3011 RMK A01 T01071025  RH  039%=      5-min Rain = 0
KCA1 201840Z 20013KT 11/M03 A3011 RMK A01 T01081027  RH  039%=      5-min Rain = 0
KCA1 201841Z 20010KT 11/M03 A3011 RMK A01 T01071028  RH  039%=      5-min Rain = 0
KCA1 201842Z 19014KT 11/M03 A3011 RMK A01 T01061028  RH  039%=      5-min Rain = 0
KCA1 201843Z 19013KT 11/M03 A3011 RMK A01 T01061028  RH  039%=      5-min Rain = 0
KCA1 201844Z 19013KT 11/M03 A3011 RMK A01 T01051028  RH  039%=      5-min Rain = 0
KCA1 201845Z 20012KT 11/M03 A3011 RMK A01 T01051028  RH  039%=      5-min Rain = 0
KCA1 201846Z 20010KT 11/M03 A3011 RMK A01 T01061028  RH  039%=      5-min Rain = 0
KCA1 201847Z 21009KT 11/M03 A3011 RMK A01 T01071026  RH  039%=      5-min Rain = 0
KCA1 201848Z 21008KT 11/M02 A3011 RMK A01 T01101023  RH  039%=      5-min Rain = 0
KCA1 201849Z 22012KT 11/M02 A3011 RMK A01 T01141023  RH  038%=      5-min Rain = 0
KCA1 201850Z 21013KT 11/M03 A3011 RMK A01 T01141026  RH  037%=      5-min Rain = 0
KCA1 201851Z 20009KT 11/M03 A3011 RMK A01 T01101030  RH  038%=      5-min Rain = 0
KCA1 201852Z 20010KT 11/M03 A3011 RMK A01 T01081027  RH  039%=      5-min Rain = 0
KCA1 201853Z 19011KT 11/M03 A3011 RMK A01 T01121025  RH  038%=      5-min Rain = 0
KCA1 201854Z 20009KT 12/M02 A3011 RMK A01 T01151024  RH  038%=      5-min Rain = 0
KCA1 201855Z 21010KT 12/M03 A3011 RMK A01 T01161025  RH  037%=      5-min Rain = 0
KCA1 201856Z 19011KT 12/M03 A3011 RMK A01 T01151025  RH  037%=      5-min Rain = 0
KCA1 201857Z 20013KT 12/M03 A301 RMK A01 T01161026  RH  037%=      5-min Rain = 0
KCA1 201858Z 19012KT 11/M03 A301 RMK A01 T01141027  RH  037%=      5-min Rain = 0
KCA1 201859Z 20015KT 11/M03 A301 RMK A01 T01131026  RH  038%=      5-min Rain = 0
KCA1 201900Z 19014KT 11/M03 A301 RMK A01 T01141026  RH  037%=      5-min Rain = 0
KCA1 201901Z 19011KT 12/M03 A301 RMK A01 T01151027  RH  037%=      5-min Rain = 0
KCA1 201902Z 18012KT 12/M03 A301 RMK A01 T01151026  RH  037%=      5-min Rain = 0
KCA1 201903Z 18013KT 12/M03 A301 RMK A01 T01161026  RH  037%=      5-min Rain = 0
KCA1 201904Z 20013KT 12/M03 A301 RMK A01 T01161026  RH  037%=      5-min Rain = 0
KCA1 201905Z 20008KT 12/M02 A301 RMK A01 T01181024  RH  037%=      5-min Rain = 0
KCA1 201906Z 18011KT 12/M02 A301 RMK A01 T01211023  RH  037%=      5-min Rain = 0
KCA1 201907Z 19012KT 12/M03 A301 RMK A01 T01211026  RH  036%=      5-min Rain = 0
KCA1 201908Z 19012KT 12/M03 A301 RMK A01 T01191027  RH  036%=      5-min Rain = 0
KCA1 201909Z 18013KT 12/M03 A301 RMK A01 T01181026  RH  036%=      5-min Rain = 0
KCA1 201910Z 18011KT 12/M03 A301 RMK A01 T01191026  RH  036%=      5-min Rain = 0
KCA1 201911Z 19012KT 12/M03 A301 RMK A01 T01181026  RH  036%=      5-min Rain = 0
KCA1 201912Z 21012KT 12/M03 A301 RMK A01 T01201025  RH  036%=      5-min Rain = 0
KCA1 201913Z 20013KT 12/M03 A301 RMK A01 T01201026  RH  036%=      5-min Rain = 0
KCA1 201914Z 20013KT 12/M03 A301 RMK A01 T01211026  RH  036%=      5-min Rain = 0
KCA1 201915Z 19013KT 12/M03 A301 RMK A01 T01211025  RH  036%=      5-min Rain = 0
KCA1 201916Z 19012KT 12/M02 A301 RMK A01 T01221024  RH  036%=      5-min Rain = 0
KCA1 201917Z 19012KT 12/M03 A3009 RMK A01 T01231026  RH  035%=      5-min Rain = 0
KCA1 201918Z 21012KT 12/M03 A3009 RMK A01 T01221026  RH  035%=      5-min Rain = 0
KCA1 201919Z 21011KT 12/M03 A3009 RMK A01 T01211026  RH  036%=      5-min Rain = 0
KCA1 201920Z 20012KT 12/M03 A3009 RMK A01 T01221025  RH  036%=      5-min Rain = 0
KCA1 201921Z 20009KT 12/M03 A3009 RMK A01 T01211026  RH  036%=      5-min Rain = 0
KCA1 201922Z 19010KT 12/M03 A3009 RMK A01 T01221025  RH  036%=      5-min Rain = 0
KCA1 201923Z 21012KT 13/M02 A3009 RMK A01 T01251023  RH  036%=      5-min Rain = 0
KCA1 201924Z 20011KT 13/M02 A3009 RMK A01 T01261024  RH  035%=      5-min Rain = 0
KCA1 201925Z 20013KT 13/M02 A3009 RMK A01 T01271024  RH  035%=      5-min Rain = 0
KCA1 201926Z 20012KT 13/M03 A3009 RMK A01 T01261026  RH  035%=      5-min Rain = 0
KCA1 201927Z 20014KT 13/M03 A3009 RMK A01 T01261025  RH  035%=      5-min Rain = 0
KCA1 201928Z 20014KT 13/M03 A3009 RMK A01 T01251025  RH  035%=      5-min Rain = 0
KCA1 201929Z 19013KT 13/M03 A3009 RMK A01 T01261025  RH  035%=      5-min Rain = 0
KCA1 201930Z 19013KT 13/M03 A3009 RMK A01 T01261025  RH  035%=      5-min Rain = 0
KCA1 201931Z 19014KT 13/M03 A3008 RMK A01 T01261025  RH  035%=      5-min Rain = 0
KCA1 201932Z 18013KT 13/M03 A3008 RMK A01 T01271025  RH  035%=      5-min Rain = 0
KCA1 201933Z 18012KT 13/M03 A3008 RMK A01 T01261026  RH  035%=      5-min Rain = 0
KCA1 201934Z 21012KT 13/M03 A3008 RMK A01 T01261025  RH  035%=      5-min Rain = 0
KCA1 201935Z 20011KT 13/M03 A3008 RMK A01 T01251027  RH  035%=      5-min Rain = 0
KCA1 201936Z 19010KT 12/M03 A3008 RMK A01 T01241027  RH  035%=      5-min Rain = 0
KCA1 201937Z 21011KT 13/M02 A3008 RMK A01 T01271023  RH  035%=      5-min Rain = 0
KCA1 201938Z 21012KT 13/M02 A3008 RMK A01 T01291024  RH  034%=      5-min Rain = 0
KCA1 201939Z 20013KT 13/M02 A3008 RMK A01 T01311024  RH  034%=      5-min Rain = 0
KCA1 201940Z 18016KT 13/M03 A3007 RMK A01 T01311025  RH  034%=      5-min Rain = 0
KCA1 201941Z 19014KT 13/M03 A3007 RMK A01 T01301026  RH  034%=      5-min Rain = 0
KCA1 201942Z 20013KT 13/M03 A3007 RMK A01 T01291026  RH  034%=      5-min Rain = 0
KCA1 201943Z 19014KT 13/M03 A3007 RMK A01 T01281026  RH  034%=      5-min Rain = 0
KCA1 201944Z 19013KT 13/M03 A3007 RMK A01 T01291025  RH  034%=      5-min Rain = 0
KCA1 201945Z 19014KT 13/M03 A3007 RMK A01 T01301025  RH  034%=      5-min Rain = 0
KCA1 201946Z 19012KT 13/M02 A3007 RMK A01 T01321024  RH  034%=      5-min Rain = 0
KCA1 201947Z 18014KT 13/M02 A3007 RMK A01 T01341024  RH  033%=      5-min Rain = 0
KCA1 201948Z 19014KT 13/M03 A3007 RMK A01 T01331026  RH  033%=      5-min Rain = 0
KCA1 201949Z 21013KT 13/M03 A3007 RMK A01 T01311026  RH  033%=      5-min Rain = 0
KCA1 201950Z 20010KT 13/M03 A3007 RMK A01 T01311026  RH  033%=      5-min Rain = 0
KCA1 201951Z 20012KT 13/M02 A3007 RMK A01 T01341023  RH  034%=      5-min Rain = 0
KCA1 201952Z 19013KT 14/M03 A3007 RMK A01 T01351026  RH  033%=      5-min Rain = 0
KCA1 201953Z 21015KT 13/M03 A3006 RMK A01 T01331025  RH  033%=      5-min Rain = 0
KCA1 201954Z 21012KT 13/M03 A3006 RMK A01 T01311027  RH  033%=      5-min Rain = 0
KCA1 201955Z 20012KT 13/M03 A3006 RMK A01 T01301027  RH  033%=      5-min Rain = 0
KCA1 201956Z 19011KT 13/M03 A3006 RMK A01 T01301027  RH  034%=      5-min Rain = 0
KCA1 201957Z 18013KT 13/M03 A3006 RMK A01 T01311026  RH  034%=      5-min Rain = 0
KCA1 201958Z 20013KT 13/M03 A3006 RMK A01 T01331025  RH  033%=      5-min Rain = 0
KCA1 201959Z 19015KT 13/M03 A3006 RMK A01 T01331026  RH  033%=      5-min Rain = 0
KCA1 202000Z 19015KT 13/M03 A3006 RMK A01 T01341026  RH  033%=      5-min Rain = 0
KCA1 202001Z 19012KT 13/M03 A3006 RMK A01 T01341026  RH  033%=      5-min Rain = 0
KCA1 202002Z 20015KT 14/M02 A3006 RMK A01 T01361024  RH  033%=      5-min Rain = 0
KCA1 202003Z 20013KT 14/M03 A3006 RMK A01 T01351027  RH  032%=      5-min Rain = 0
KCA1 202004Z 19010KT 14/M03 A3006 RMK A01 T01351025  RH  033%=      5-min Rain = 0
KCA1 202005Z 18014KT 14/M02 A3006 RMK A01 T01391023  RH  033%=      5-min Rain = 0
KCA1 202006Z 18012KT 14/M03 A3006 RMK A01 T01381027  RH  032%=      5-min Rain = 0
KCA1 202007Z 19013KT 14/M03 A3006 RMK A01 T01361027  RH  032%=      5-min Rain = 0
KCA1 202008Z 20013KT 14/M03 A3006 RMK A01 T01351028  RH  032%=      5-min Rain = 0
KCA1 202009Z 20013KT 13/M03 A3006 RMK A01 T01341028  RH  032%=      5-min Rain = 0
KCA1 202010Z 19012KT 14/M03 A3006 RMK A01 T01351027  RH  032%=      5-min Rain = 0
KCA1 202011Z 18015KT 14/M03 A3006 RMK A01 T01371027  RH  032%=      5-min Rain = 0
KCA1 202012Z 18013KT 14/M03 A3006 RMK A01 T01361028  RH  032%=      5-min Rain = 0
KCA1 202013Z 19009KT 14/M03 A3006 RMK A01 T01371026  RH  032%=      5-min Rain = 0
KCA1 202014Z 19012KT 14/M03 A3006 RMK A01 T01401025  RH  032%=      5-min Rain = 0
KCA1 202015Z 19013KT 14/M03 A3005 RMK A01 T01401027  RH  031%=      5-min Rain = 0
KCA1 202016Z 19013KT 14/M03 A3005 RMK A01 T01381027  RH  032%=      5-min Rain = 0
KCA1 202017Z 19013KT 14/M03 A3005 RMK A01 T01381027  RH  032%=      5-min Rain = 0
KCA1 202018Z 17014KT 14/M03 A3005 RMK A01 T01371028  RH  032%=      5-min Rain = 0
KCA1 202019Z 19013KT 14/M03 A3005 RMK A01 T01371027  RH  032%=      5-min Rain = 0
KCA1 202020Z 19011KT 14/M03 A3005 RMK A01 T01381026  RH  032%=      5-min Rain = 0
KCA1 202021Z 19014KT 14/M03 A3005 RMK A01 T01411025  RH  032%=      5-min Rain = 0
KCA1 202022Z 19011KT 14/M03 A3005 RMK A01 T01401027  RH  031%=      5-min Rain = 0
KCA1 202023Z 18013KT 14/M03 A3005 RMK A01 T01391026  RH  032%=      5-min Rain = 0
KCA1 202024Z 18013KT 14/M03 A3005 RMK A01 T01401026  RH  031%=      5-min Rain = 0
KCA1 202025Z 18014KT 14/M03 A3005 RMK A01 T01401027  RH  031%=      5-min Rain = 0
KCA1 202026Z 18013KT 14/M03 A3005 RMK A01 T01381029  RH  031%=      5-min Rain = 0
KCA1 202027Z 19012KT 14/M03 A3005 RMK A01 T01361028  RH  032%=      5-min Rain = 0
KCA1 202028Z 19015KT 14/M03 A3005 RMK A01 T01371027  RH  032%=      5-min Rain = 0
KCA1 202029Z 20012KT 14/M03 A3005 RMK A01 T01371028  RH  032%=      5-min Rain = 0
KCA1 202030Z 20012KT 14/M03 A3005 RMK A01 T01371027  RH  032%=      5-min Rain = 0
KCA1 202031Z 20013KT 14/M03 A3005 RMK A01 T01391027  RH  032%=      5-min Rain = 0
KCA1 202032Z 19013KT 14/M03 A3005 RMK A01 T01391028  RH  031%=      5-min Rain = 0
KCA1 202033Z 17014KT 14/M03 A3004 RMK A01 T01381029  RH  031%=      5-min Rain = 0
KCA1 202034Z 18014KT 14/M03 A3004 RMK A01 T01381027  RH  032%=      5-min Rain = 0
KCA1 202035Z 20012KT 14/M03 A3004 RMK A01 T01401027  RH  031%=      5-min Rain = 0
KCA1 202036Z 20011G16KT 14/M03 A3004 RMK A01 T01401028  RH  031%=      5-min Rain = 0
KCA1 202037Z 20012KT 14/M03 A3004 RMK A01 T01411027  RH  031%=      5-min Rain = 0
KCA1 202038Z 19011KT 14/M03 A3004 RMK A01 T01421027  RH  031%=      5-min Rain = 0
KCA1 202039Z 18013KT 14/M03 A3004 RMK A01 T01431028  RH  030%=      5-min Rain = 0
KCA1 202040Z 19012KT 14/M03 A3004 RMK A01 T01421030  RH  030%=      5-min Rain = 0
KCA1 202041Z 19011KT 14/M03 A3004 RMK A01 T01411029  RH  031%=      5-min Rain = 0
KCA1 202042Z 20010KT 14/M03 A3004 RMK A01 T01421029  RH  031%=      5-min Rain = 0
KCA1 202043Z 19011KT 14/M03 A3004 RMK A01 T01431029  RH  030%=      5-min Rain = 0
KCA1 202044Z 19010KT 14/M03 A3004 RMK A01 T01401032  RH  030%=      5-min Rain = 0
KCA1 202045Z 18013KT 14/M03 A3004 RMK A01 T01401030  RH  031%=      5-min Rain = 0
KCA1 202046Z 18013KT 14/M03 A3004 RMK A01 T01411030  RH  030%=      5-min Rain = 0
KCA1 202047Z 18013KT 14/M03 A3004 RMK A01 T01401030  RH  031%=      5-min Rain = 0
KCA1 202048Z 20011KT 14/M03 A3004 RMK A01 T01421028  RH  031%=      5-min Rain = 0
KCA1 202049Z 21013KT 14/M03 A3004 RMK A01 T01431028  RH  030%=      5-min Rain = 0
KCA1 202050Z 19013KT 14/M03 A3004 RMK A01 T01411030  RH  030%=      5-min Rain = 0
KCA1 202051Z 20011KT 14/M03 A3004 RMK A01 T01401030  RH  031%=      5-min Rain = 0
KCA1 202052Z 19009KT 14/M03 A3004 RMK A01 T01391030  RH  031%=      5-min Rain = 0
KCA1 202053Z 17014KT 14/M03 A3003 RMK A01 T01401029  RH  031%=      5-min Rain = 0
KCA1 202054Z 17012KT 14/M03 A3003 RMK A01 T01401030  RH  031%=      5-min Rain = 0
KCA1 202055Z 18013KT 14/M03 A3003 RMK A01 T01391030  RH  031%=      5-min Rain = 0
KCA1 202056Z 19011KT 14/M03 A3003 RMK A01 T01401028  RH  031%=      5-min Rain = 0
KCA1 202057Z 18011KT 14/M03 A3003 RMK A01 T01431027  RH  031%=      5-min Rain = 0
KCA1 202058Z 17011KT 15/M03 A3003 RMK A01 T01451027  RH  030%=      5-min Rain = 0
KCA1 202059Z 17013KT 15/M03 A3003 RMK A01 T01451027  RH  030%=      5-min Rain = 0
KCA1 202100Z 17011KT 15/M03 A3003 RMK A01 T01451028  RH  030%=      5-min Rain = 0
KCA1 202101Z 17013KT 15/M03 A3003 RMK A01 T01461027  RH  030%=      5-min Rain = 0
KCA1 202102Z 17013KT 15/M03 A3003 RMK A01 T01451029  RH  030%=      5-min Rain = 0
KCA1 202103Z 17015KT 14/M03 A3002 RMK A01 T01431030  RH  030%=      5-min Rain = 0
KCA1 202104Z 17015KT 14/M03 A3002 RMK A01 T01411030  RH  030%=      5-min Rain = 0
KCA1 202105Z 17011KT 14/M03 A3002 RMK A01 T01401029  RH  031%=      5-min Rain = 0
KCA1 202106Z 17015KT 14/M03 A3002 RMK A01 T01411029  RH  031%=      5-min Rain = 0
KCA1 202107Z 18016KT 14/M03 A3002 RMK A01 T01421030  RH  030%=      5-min Rain = 0
KCA1 202108Z 18016KT 14/M03 A3002 RMK A01 T01411030  RH  030%=      5-min Rain = 0
KCA1 202109Z 19015KT 14/M03 A3002 RMK A01 T01411030  RH  031%=      5-min Rain = 0
KCA1 202110Z 19014KT 14/M03 A3002 RMK A01 T01411030  RH  030%=      5-min Rain = 0
KCA1 202111Z 19013KT 14/M03 A3002 RMK A01 T01401030  RH  031%=      5-min Rain = 0
KCA1 202112Z 19012KT 14/M03 A3002 RMK A01 T01421027  RH  031%=      5-min Rain = 0
KCA1 202113Z 17012G17KT 14/M03 A3002 RMK A01 T01421027  RH  031%=      5-min Rain = 0
KCA1 202114Z 18014KT 14/M03 A3002 RMK A01 T01421027  RH  031%=      5-min Rain = 0
KCA1 202115Z 19012KT 14/M03 A3002 RMK A01 T01421027  RH  031%=      5-min Rain = 0
KCA1 202116Z 18014KT 14/M03 A3002 RMK A01 T01411029  RH  031%=      5-min Rain = 0
KCA1 202117Z 18014KT 14/M03 A3002 RMK A01 T01391029  RH  031%=      5-min Rain = 0
KCA1 202118Z 18014KT 14/M03 A3002 RMK A01 T01381030  RH  031%=      5-min Rain = 0
KCA1 202119Z 18014KT 14/M03 A3002 RMK A01 T01381029  RH  031%=      5-min Rain = 0
KCA1 202120Z 18015KT 14/M03 A3002 RMK A01 T01381029  RH  031%=      5-min Rain = 0
KCA1 202121Z 18015KT 14/M03 A3002 RMK A01 T01391029  RH  031%=      5-min Rain = 0
KCA1 202122Z 18014KT 14/M03 A3002 RMK A01 T01391029  RH  031%=      5-min Rain = 0
KCA1 202123Z 20015KT 14/M03 A3002 RMK A01 T01401029  RH  031%=      5-min Rain = 0
KCA1 202124Z 20015KT 14/M03 A3002 RMK A01 T01401029  RH  031%=      5-min Rain = 0
KCA1 202125Z 19013KT 14/M03 A3002 RMK A01 T01391030  RH  031%=      5-min Rain = 0
KCA1 202126Z 18011KT 14/M03 A3002 RMK A01 T01381029  RH  031%=      5-min Rain = 0
KCA1 202127Z 19016KT 14/M03 A3002 RMK A01 T01401028  RH  031%=      5-min Rain = 0
KCA1 202128Z 18013KT 14/M03 A3002 RMK A01 T01381031  RH  031%=      5-min Rain = 0
KCA1 202129Z 17013KT 14/M03 A3002 RMK A01 T01371030  RH  031%=      5-min Rain = 0
KCA1 202130Z 18014KT 14/M03 A3002 RMK A01 T01361029  RH  032%=      5-min Rain = 0
KCA1 202131Z 19015KT 14/M03 A3002 RMK A01 T01361029  RH  032%=      5-min Rain = 0
KCA1 202132Z 19014KT 14/M03 A3002 RMK A01 T01361030  RH  032%=      5-min Rain = 0
KCA1 202133Z 21014KT 13/M03 A3002 RMK A01 T01341030  RH  032%=      5-min Rain = 0
KCA1 202134Z 21015KT 13/M03 A3002 RMK A01 T01331030  RH  032%=      5-min Rain = 0
KCA1 202135Z 19016KT 13/M03 A3001 RMK A01 T01321031  RH  032%=      5-min Rain = 0
KCA1 202136Z 19015KT 13/M03 A3001 RMK A01 T01311031  RH  032%=      5-min Rain = 0
KCA1 202137Z 18015KT 13/M03 A3002 RMK A01 T01301031  RH  033%=      5-min Rain = 0
KCA1 202138Z 19014KT 13/M03 A3001 RMK A01 T01301031  RH  033%=      5-min Rain = 0
KCA1 202139Z 19014KT 13/M03 A3001 RMK A01 T01291031  RH  033%=      5-min Rain = 0
KCA1 202140Z 19014KT 13/M03 A3001 RMK A01 T01291031  RH  033%=      5-min Rain = 0
KCA1 202141Z 18015KT 13/M03 A3001 RMK A01 T01291030  RH  033%=      5-min Rain = 0
KCA1 202142Z 17016KT 13/M03 A3001 RMK A01 T01291030  RH  033%=      5-min Rain = 0
KCA1 202143Z 18012KT 13/M03 A3001 RMK A01 T01291030  RH  033%=      5-min Rain = 0
KCA1 202144Z 18012KT 13/M03 A3001 RMK A01 T01281030  RH  033%=      5-min Rain = 0
KCA1 202145Z 19014KT 13/M03 A3001 RMK A01 T01281030  RH  033%=      5-min Rain = 0
KCA1 202146Z 19013KT 13/M03 A3001 RMK A01 T01271030  RH  033%=      5-min Rain = 0
KCA1 202147Z 20014KT 13/M03 A3001 RMK A01 T01261031  RH  033%=      5-min Rain = 0
KCA1 202148Z 19011KT 13/M03 A3001 RMK A01 T01251032  RH  033%=      5-min Rain = 0
KCA1 202149Z 20012KT 13/M03 A3001 RMK A01 T01251031  RH  034%=      5-min Rain = 0
KCA1 202150Z 19011KT 13/M03 A3001 RMK A01 T01251030  RH  034%=      5-min Rain = 0
KCA1 202151Z 19012KT 13/M03 A3002 RMK A01 T01251030  RH  034%=      5-min Rain = 0
KCA1 202152Z 18011KT 13/M03 A3002 RMK A01 T01261030  RH  034%=      5-min Rain = 0
KCA1 202153Z 18011KT 13/M03 A3002 RMK A01 T01271029  RH  034%=      5-min Rain = 0
KCA1 202154Z 18010KT 13/M03 A3002 RMK A01 T01291029  RH  033%=      5-min Rain = 0
KCA1 202155Z 18011KT 13/M03 A3002 RMK A01 T01311029  RH  033%=      5-min Rain = 0
KCA1 202156Z 19009KT 13/M03 A3002 RMK A01 T01311029  RH  033%=      5-min Rain = 0
KCA1 202157Z 18012KT 13/M03 A3002 RMK A01 T01321029  RH  033%=      5-min Rain = 0
KCA1 202158Z 18010KT 13/M03 A3002 RMK A01 T01321029  RH  033%=      5-min Rain = 0
KCA1 202159Z 18011KT 13/M03 A3002 RMK A01 T01331028  RH  033%=      5-min Rain = 0
KCA1 202200Z 19012KT 13/M03 A3002 RMK A01 T01331028  RH  033%=      5-min Rain = 0
KCA1 202201Z 18013KT 13/M03 A3002 RMK A01 T01341029  RH  032%=      5-min Rain = 0
KCA1 202202Z 19013KT 13/M03 A3001 RMK A01 T01331029  RH  032%=      5-min Rain = 0
KCA1 202203Z 19012KT 13/M03 A3001 RMK A01 T01321029  RH  033%=      5-min Rain = 0
KCA1 202204Z 18013KT 13/M03 A3001 RMK A01 T01331029  RH  032%=      5-min Rain = 0
KCA1 202205Z 17013KT 13/M03 A3001 RMK A01 T01331028  RH  032%=      5-min Rain = 0
KCA1 202206Z 17013KT 13/M03 A3001 RMK A01 T01331029  RH  032%=      5-min Rain = 0
KCA1 202207Z 18013KT 13/M03 A3001 RMK A01 T01321029  RH  033%=      5-min Rain = 0
KCA1 202208Z 17012KT 13/M03 A3001 RMK A01 T01321029  RH  033%=      5-min Rain = 0
KCA1 202209Z 18014KT 13/M03 A3001 RMK A01 T01321029  RH  033%=      5-min Rain = 0
KCA1 202210Z 18014KT 13/M03 A3001 RMK A01 T01321030  RH  032%=      5-min Rain = 0
KCA1 202211Z 18014KT 13/M03 A3001 RMK A01 T01321029  RH  033%=      5-min Rain = 0
KCA1 202212Z 18014KT 13/M03 A3001 RMK A01 T01331029  RH  033%=      5-min Rain = 0
KCA1 202213Z 19012KT 13/M03 A3001 RMK A01 T01331028  RH  033%=      5-min Rain = 0
KCA1 202214Z 18016KT 13/M03 A3001 RMK A01 T01331028  RH  033%=      5-min Rain = 0
KCA1 202215Z 18012KT 13/M03 A3001 RMK A01 T01331030  RH  032%=      5-min Rain = 0
KCA1 202216Z 19012KT 13/M03 A3002 RMK A01 T01321030  RH  032%=      5-min Rain = 0
KCA1 202217Z 18012KT 13/M03 A3002 RMK A01 T01321029  RH  033%=      5-min Rain = 0
KCA1 202218Z 17012KT 13/M03 A3002 RMK A01 T01321028  RH  033%=      5-min Rain = 0
KCA1 202219Z 17010KT 13/M03 A3002 RMK A01 T01321028  RH  033%=      5-min Rain = 0
KCA1 202220Z 17013KT 13/M03 A3001 RMK A01 T01311029  RH  033%=      5-min Rain = 0
KCA1 202221Z 17015KT 13/M03 A3001 RMK A01 T01291030  RH  033%=      5-min Rain = 0
KCA1 202222Z 17014KT 13/M03 A3001 RMK A01 T01261032  RH  033%=      5-min Rain = 0
KCA1 202223Z 17011KT 12/M03 A3002 RMK A01 T01241032  RH  034%=      5-min Rain = 0
KCA1 202224Z 19011KT 12/M03 A3002 RMK A01 T01231030  RH  034%=      5-min Rain = 0
KCA1 202225Z 20014KT 12/M03 A3002 RMK A01 T01231030  RH  034%=      5-min Rain = 0
KCA1 202226Z 19011KT 12/M03 A3002 RMK A01 T01231031  RH  034%=      5-min Rain = 0
KCA1 202227Z 18009KT 12/M03 A3002 RMK A01 T01221031  RH  034%=      5-min Rain = 0
KCA1 202228Z 17009KT 12/M03 A3002 RMK A01 T01221029  RH  035%=      5-min Rain = 0
KCA1 202229Z 17010KT 12/M03 A3002 RMK A01 T01231029  RH  035%=      5-min Rain = 0
KCA1 202230Z 17010KT 12/M03 A3002 RMK A01 T01221030  RH  034%=      5-min Rain = 0
KCA1 202231Z 18010KT 12/M03 A3002 RMK A01 T01211030  RH  035%=      5-min Rain = 0
KCA1 202232Z 19009KT 12/M03 A3002 RMK A01 T01201029  RH  035%=      5-min Rain = 0
KCA1 202233Z 18012KT 12/M03 A3002 RMK A01 T01211029  RH  035%=      5-min Rain = 0
KCA1 202234Z 19011KT 12/M03 A3002 RMK A01 T01201030  RH  035%=      5-min Rain = 0
KCA1 202235Z 18011KT 12/M03 A3002 RMK A01 T01191031  RH  035%=      5-min Rain = 0
KCA1 202236Z 19012KT 12/M03 A3002 RMK A01 T01171031  RH  036%=      5-min Rain = 0
KCA1 202237Z 18010KT 12/M03 A3002 RMK A01 T01161030  RH  036%=      5-min Rain = 0
KCA1 202238Z 18011KT 12/M03 A3002 RMK A01 T01151029  RH  036%=      5-min Rain = 0
KCA1 202239Z 18010KT 11/M03 A3002 RMK A01 T01141030  RH  036%=      5-min Rain = 0
KCA1 202240Z 18011KT 11/M03 A3002 RMK A01 T01131030  RH  037%=      5-min Rain = 0
KCA1 202241Z 18014KT 11/M03 A3002 RMK A01 T01131029  RH  037%=      5-min Rain = 0
KCA1 202242Z 17013KT 11/M03 A3002 RMK A01 T01121030  RH  037%=      5-min Rain = 0
KCA1 202243Z 18012KT 11/M03 A3002 RMK A01 T01111030  RH  037%=      5-min Rain = 0
KCA1 202244Z 17011KT 11/M03 A3002 RMK A01 T01111030  RH  037%=      5-min Rain = 0
KCA1 202245Z 17010KT 11/M03 A3002 RMK A01 T01111029  RH  037%=      5-min Rain = 0
KCA1 202246Z 18012KT 11/M03 A3002 RMK A01 T01111030  RH  037%=      5-min Rain = 0
KCA1 202247Z 18013KT 11/M03 A3002 RMK A01 T01131029  RH  037%=      5-min Rain = 0
KCA1 202248Z 18011KT 12/M03 A3002 RMK A01 T01151028  RH  037%=      5-min Rain = 0
KCA1 202249Z 17011KT 12/M03 A3002 RMK A01 T01161028  RH  037%=      5-min Rain = 0
KCA1 202250Z 18009KT 12/M03 A3002 RMK A01 T01161028  RH  036%=      5-min Rain = 0
KCA1 202251Z 18010KT 12/M03 A3002 RMK A01 T01161028  RH  037%=      5-min Rain = 0
KCA1 202252Z 18013KT 12/M03 A3001 RMK A01 T01151029  RH  037%=      5-min Rain = 0
KCA1 202253Z 18011KT 11/M03 A3001 RMK A01 T01131029  RH  037%=      5-min Rain = 0
KCA1 202254Z 18009KT 11/M03 A3001 RMK A01 T01121029  RH  037%=      5-min Rain = 0
KCA1 202255Z 17012KT 11/M03 A3001 RMK A01 T01121028  RH  037%=      5-min Rain = 0
KCA1 202256Z 17010KT 11/M03 A3001 RMK A01 T01111029  RH  038%=      5-min Rain = 0
KCA1 202257Z 18009KT 11/M03 A3001 RMK A01 T01101029  RH  038%=      5-min Rain = 0
KCA1 202258Z 18013KT 11/M03 A3001 RMK A01 T01101028  RH  038%=      5-min Rain = 0
KCA1 202259Z 18014KT 11/M03 A3001 RMK A01 T01081029  RH  038%=      5-min Rain = 0
KCA1 202300Z 17012KT 11/M03 A3001 RMK A01 T01071029  RH  038%=      5-min Rain = 0
KCA1 202301Z 18012KT 11/M03 A3001 RMK A01 T01061029  RH  038%=      5-min Rain = 0
KCA1 202302Z 18013KT 11/M03 A3001 RMK A01 T01051030  RH  039%=      5-min Rain = 0
KCA1 202303Z 18011KT 10/M03 A3001 RMK A01 T01041030  RH  039%=      5-min Rain = 0
KCA1 202304Z 18009KT 10/M03 A3001 RMK A01 T01041029  RH  039%=      5-min Rain = 0
KCA1 202305Z 19011KT 10/M03 A3001 RMK A01 T01031029  RH  039%=      5-min Rain = 0
KCA1 202306Z 18010G15KT 10/M03 A3001 RMK A01 T01031029  RH  039%=      5-min Rain = 0
KCA1 202307Z 18011KT 10/M03 A3001 RMK A01 T01021029  RH  040%=      5-min Rain = 0
KCA1 202308Z 18011KT 10/M03 A3001 RMK A01 T01021029  RH  040%=      5-min Rain = 0
KCA1 202309Z 18010KT 10/M03 A3001 RMK A01 T01021029  RH  040%=      5-min Rain = 0
KCA1 202310Z 18011KT 10/M03 A3001 RMK A01 T01011029  RH  040%=      5-min Rain = 0
KCA1 202311Z 18012KT 10/M03 A3001 RMK A01 T01011028  RH  040%=      5-min Rain = 0
KCA1 202312Z 18010KT 10/M03 A3001 RMK A01 T01001029  RH  040%=      5-min Rain = 0
KCA1 202313Z 18010KT 10/M03 A3001 RMK A01 T01001029  RH  040%=      5-min Rain = 0
KCA1 202314Z 18011KT 10/M03 A3001 RMK A01 T01001028  RH  041%=      5-min Rain = 0
KCA1 202315Z 17009KT 10/M03 A3001 RMK A01 T00991028  RH  041%=      5-min Rain = 0
KCA1 202316Z 17009KT 10/M03 A3001 RMK A01 T00981028  RH  041%=      5-min Rain = 0
KCA1 202317Z 16009KT 10/M03 A3001 RMK A01 T00981028  RH  041%=      5-min Rain = 0
KCA1 202318Z 16011KT 10/M03 A3001 RMK A01 T00971028  RH  042%=      5-min Rain = 0
KCA1 202319Z 16011KT 10/M03 A3001 RMK A01 T00951028  RH  042%=      5-min Rain = 0
KCA1 202320Z 16011KT 09/M03 A3001 RMK A01 T00941028  RH  042%=      5-min Rain = 0
KCA1 202321Z 17011KT 09/M03 A3001 RMK A01 T00931028  RH  042%=      5-min Rain = 0
KCA1 202322Z 17010KT 09/M03 A3001 RMK A01 T00921029  RH  043%=      5-min Rain = 0
KCA1 202323Z 17011KT 09/M03 A3001 RMK A01 T00911029  RH  043%=      5-min Rain = 0
KCA1 202324Z 17008KT 09/M03 A3001 RMK A01 T00911029  RH  043%=      5-min Rain = 0
KCA1 202325Z 17010KT 09/M03 A3001 RMK A01 T00901030  RH  043%=      5-min Rain = 0
KCA1 202326Z 18010KT 09/M03 A3001 RMK A01 T00901030  RH  043%=      5-min Rain = 0
KCA1 202327Z 17009KT 09/M03 A3001 RMK A01 T00901030  RH  043%=      5-min Rain = 0
KCA1 202328Z 17009KT 09/M03 A3001 RMK A01 T00901029  RH  043%=      5-min Rain = 0
KCA1 202329Z 17008KT 09/M03 A3001 RMK A01 T00891030  RH  043%=      5-min Rain = 0
KCA1 202330Z 17008KT 09/M03 A3001 RMK A01 T00881030  RH  043%=      5-min Rain = 0
KCA1 202331Z 17009KT 09/M03 A3001 RMK A01 T00871030  RH  044%=      5-min Rain = 0
KCA1 202332Z 18008KT 09/M03 A3001 RMK A01 T00871029  RH  044%=      5-min Rain = 0
KCA1 202333Z 18010KT 09/M03 A3001 RMK A01 T00861030  RH  044%=      5-min Rain = 0
KCA1 202334Z 17010KT 09/M03 A3001 RMK A01 T00861030  RH  044%=      5-min Rain = 0
KCA1 202335Z 17008KT 09/M03 A3001 RMK A01 T00871030  RH  044%=      5-min Rain = 0
KCA1 202336Z 16007KT 09/M03 A3001 RMK A01 T00871029  RH  044%=      5-min Rain = 0
KCA1 202337Z 15006KT 09/M03 A3001 RMK A01 T00871030  RH  044%=      5-min Rain = 0
KCA1 202338Z 15006KT 09/M03 A3001 RMK A01 T00861030  RH  044%=      5-min Rain = 0
KCA1 202339Z 16006KT 08/M03 A3001 RMK A01 T00841030  RH  045%=      5-min Rain = 0
KCA1 202340Z 15007KT 08/M03 A3001 RMK A01 T00831029  RH  045%=      5-min Rain = 0
KCA1 202341Z 15008KT 08/M03 A3001 RMK A01 T00831029  RH  045%=      5-min Rain = 0
KCA1 202342Z 14007KT 08/M03 A3001 RMK A01 T00821029  RH  045%=      5-min Rain = 0
KCA1 202343Z 16008KT 08/M03 A3001 RMK A01 T00821028  RH  046%=      5-min Rain = 0
KCA1 202344Z 15009KT 08/M03 A3001 RMK A01 T00821029  RH  045%=      5-min Rain = 0
KCA1 202345Z 15008KT 08/M03 A3001 RMK A01 T00831029  RH  045%=      5-min Rain = 0
KCA1 202346Z 15008KT 08/M03 A3001 RMK A01 T00831029  RH  045%=      5-min Rain = 0
KCA1 202347Z 15008KT 08/M03 A3001 RMK A01 T00831029  RH  045%=      5-min Rain = 0
KCA1 202348Z 15010G15KT 08/M03 A3001 RMK A01 T00831029  RH  045%=      5-min Rain = 0
KCA1 202349Z 15008KT 08/M03 A3001 RMK A01 T00821030  RH  045%=      5-min Rain = 0
KCA1 202350Z 15008KT 08/M03 A3001 RMK A01 T00831029  RH  045%=      5-min Rain = 0
KCA1 202351Z 16009KT 08/M03 A3001 RMK A01 T00821029  RH  045%=      5-min Rain = 0
KCA1 202352Z 14007KT 08/M03 A3001 RMK A01 T00811029  RH  046%=      5-min Rain = 0
KCA1 202353Z 15006KT 08/M03 A3001 RMK A01 T00801029  RH  046%=      5-min Rain = 0
KCA1 202354Z 16008KT 08/M03 A3001 RMK A01 T00791030  RH  046%=      5-min Rain = 0
KCA1 202355Z 15006KT 08/M03 A3001 RMK A01 T00791029  RH  046%=      5-min Rain = 0
KCA1 202356Z 15008KT 08/M03 A3001 RMK A01 T00781029  RH  046%=      5-min Rain = 0
KCA1 202357Z 16009KT 08/M03 A3001 RMK A01 T00781029  RH  046%=      5-min Rain = 0
KCA1 202358Z 16008KT 08/M03 A3001 RMK A01 T00781029  RH  047%=      5-min Rain = 0
KCA1 202359Z 16008KT 08/M03 A3001 RMK A01 T00781029  RH  047%=      5-min Rain = 0
KCA1 210000Z 16008KT 08/M03 A3001 RMK A01 T00781029  RH  047%=      5-min Rain = 0
KCA1 210001Z 17007KT 08/M03 A3001 RMK A01 T00781029  RH  047%=      5-min Rain = 0
KCA1 210002Z 16008KT 08/M03 A3001 RMK A01 T00771029  RH  047%=      5-min Rain = 0
KCA1 210003Z 15007KT 08/M03 A3001 RMK A01 T00761029  RH  047%=      5-min Rain = 0
KCA1 210004Z 15008KT 08/M03 A3001 RMK A01 T00751029  RH  047%=      5-min Rain = 0
KCA1 210005Z 15009KT 08/M03 A3001 RMK A01 T00751029  RH  048%=      5-min Rain = 0
KCA1 210006Z 16009KT 07/M03 A3001 RMK A01 T00741029  RH  048%=      5-min Rain = 0
KCA1 210007Z 15009KT 07/M03 A3001 RMK A01 T00741029  RH  048%=      5-min Rain = 0
KCA1 210008Z 16008KT 07/M03 A3001 RMK A01 T00741029  RH  048%=      5-min Rain = 0
KCA1 210009Z 16008KT 07/M03 A3001 RMK A01 T00731030  RH  048%=      5-min Rain = 0
KCA1 210010Z 16008KT 07/M03 A3001 RMK A01 T00731030  RH  048%=      5-min Rain = 0
KCA1 210011Z 15009KT 07/M03 A3001 RMK A01 T00721030  RH  048%=      5-min Rain = 0
KCA1 210012Z 15009KT 07/M03 A3001 RMK A01 T00721030  RH  048%=      5-min Rain = 0
KCA1 210013Z 16008KT 07/M03 A3001 RMK A01 T00711031  RH  048%=      5-min Rain = 0
KCA1 210014Z 16011KT 07/M03 A3001 RMK A01 T00711031  RH  048%=      5-min Rain = 0
KCA1 210015Z 16008KT 07/M03 A3001 RMK A01 T00711031  RH  048%=      5-min Rain = 0
KCA1 210016Z 16008KT 07/M03 A3001 RMK A01 T00701032  RH  048%=      5-min Rain = 0
KCA1 210017Z 16008KT 07/M03 A3001 RMK A01 T00701031  RH  048%=      5-min Rain = 0
KCA1 210018Z 16008KT 07/M03 A3001 RMK A01 T00701032  RH  048%=      5-min Rain = 0
KCA1 210019Z 16007KT 07/M03 A3001 RMK A01 T00691032  RH  049%=      5-min Rain = 0
KCA1 210020Z 16008KT 07/M03 A3001 RMK A01 T00681032  RH  049%=      5-min Rain = 0
KCA1 210021Z 16008KT 07/M03 A3001 RMK A01 T00681032  RH  049%=      5-min Rain = 0
KCA1 210022Z 16010KT 07/M03 A3001 RMK A01 T00671032  RH  049%=      5-min Rain = 0
KCA1 210023Z 15008KT 07/M03 A3001 RMK A01 T00661032  RH  049%=      5-min Rain = 0
KCA1 210024Z 15008KT 07/M03 A3001 RMK A01 T00661032  RH  049%=      5-min Rain = 0
KCA1 210025Z 15007KT 07/M03 A3001 RMK A01 T00661032  RH  050%=      5-min Rain = 0
KCA1 210026Z 15008KT 07/M03 A3001 RMK A01 T00661032  RH  050%=      5-min Rain = 0
KCA1 210027Z 15007KT 07/M03 A3001 RMK A01 T00651033  RH  050%=      5-min Rain = 0
KCA1 210028Z 15009KT 07/M03 A3001 RMK A01 T00651033  RH  050%=      5-min Rain = 0
KCA1 210029Z 16008KT 06/M03 A3001 RMK A01 T00641033  RH  050%=      5-min Rain = 0
KCA1 210030Z 15008KT 07/M03 A3001 RMK A01 T00651033  RH  050%=      5-min Rain = 0
KCA1 210031Z 15008KT 07/M03 A3001 RMK A01 T00651033  RH  050%=      5-min Rain = 0
KCA1 210032Z 16009KT 07/M03 A3001 RMK A01 T00651033  RH  050%=      5-min Rain = 0
KCA1 210033Z 16007KT 07/M03 A3001 RMK A01 T00651033  RH  050%=      5-min Rain = 0
KCA1 210034Z 16008KT 06/M03 A3001 RMK A01 T00641033  RH  050%=      5-min Rain = 0
KCA1 210035Z 16009KT 06/M03 A3001 RMK A01 T00631033  RH  050%=      5-min Rain = 0
KCA1 210036Z 16008KT 06/M03 A3001 RMK A01 T00641033  RH  050%=      5-min Rain = 0
KCA1 210037Z 16007KT 06/M03 A3001 RMK A01 T00641033  RH  050%=      5-min Rain = 0
KCA1 210038Z 17009KT 06/M03 A3001 RMK A01 T00641033  RH  050%=      5-min Rain = 0
KCA1 210039Z 17010KT 06/M03 A3001 RMK A01 T00641033  RH  050%=      5-min Rain = 0
KCA1 210040Z 16008KT 06/M03 A3001 RMK A01 T00641033  RH  050%=      5-min Rain = 0
KCA1 210041Z 17008KT 06/M03 A3001 RMK A01 T00641033  RH  050%=      5-min Rain = 0
KCA1 210042Z 16009KT 06/M03 A3001 RMK A01 T00631033  RH  050%=      5-min Rain = 0
KCA1 210043Z 16009KT 06/M03 A3001 RMK A01 T00621033  RH  050%=      5-min Rain = 0
KCA1 210044Z 16007KT 06/M03 A3001 RMK A01 T00621033  RH  050%=      5-min Rain = 0
KCA1 210045Z 17008KT 06/M03 A3001 RMK A01 T00621033  RH  050%=      5-min Rain = 0
KCA1 210046Z 17008KT 06/M03 A3001 RMK A01 T00621034  RH  050%=      5-min Rain = 0
KCA1 210047Z 16010KT 06/M03 A3001 RMK A01 T00621034  RH  050%=      5-min Rain = 0
KCA1 210048Z 16007KT 06/M03 A3001 RMK A01 T00631034  RH  050%=      5-min Rain = 0
KCA1 210049Z 17007KT 06/M03 A3001 RMK A01 T00631033  RH  050%=      5-min Rain = 0
KCA1 210050Z 16007KT 06/M03 A3001 RMK A01 T00621034  RH  050%=      5-min Rain = 0
KCA1 210051Z 16006KT 06/M03 A3001 RMK A01 T00621034  RH  050%=      5-min Rain = 0
KCA1 210052Z 16005KT 06/M03 A3001 RMK A01 T00621033  RH  050%=      5-min Rain = 0
KCA1 210053Z 16005KT 06/M03 A3001 RMK A01 T00611034  RH  050%=      5-min Rain = 0
KCA1 210054Z 16004KT 06/M03 A3001 RMK A01 T00611034  RH  051%=      5-min Rain = 0
KCA1 210055Z 16005KT 06/M03 A3001 RMK A01 T00601034  RH  051%=      5-min Rain = 0
KCA1 210056Z 16004KT 06/M03 A3001 RMK A01 T00601034  RH  051%=      5-min Rain = 0
KCA1 210057Z 15003KT 06/M03 A3001 RMK A01 T00591034  RH  051%=      5-min Rain = 0
KCA1 210058Z 16004KT 06/M03 A3001 RMK A01 T00591034  RH  051%=      5-min Rain = 0
KCA1 210059Z 16004KT 06/M03 A3001 RMK A01 T00581034  RH  051%=      5-min Rain = 0
KCA1 210100Z 16004KT 06/M04 A3001 RMK A01 T00571035  RH  052%=      5-min Rain = 0
KCA1 210101Z 15005KT 06/M04 A3001 RMK A01 T00571035  RH  052%=      5-min Rain = 0
KCA1 210102Z 15005KT 06/M04 A3001 RMK A01 T00571035  RH  052%=      5-min Rain = 0
KCA1 210103Z 15004KT 06/M03 A3001 RMK A01 T00571034  RH  052%=      5-min Rain = 0
KCA1 210104Z 15005KT 06/M03 A3001 RMK A01 T00571034  RH  052%=      5-min Rain = 0
KCA1 210105Z 15005KT 06/M04 A3001 RMK A01 T00561035  RH  052%=      5-min Rain = 0
KCA1 210106Z 15005KT 06/M03 A3001 RMK A01 T00551034  RH  053%=      5-min Rain = 0
KCA1 210107Z 15006KT 06/M03 A3001 RMK A01 T00551034  RH  053%=      5-min Rain = 0
KCA1 210108Z 14005KT 05/M03 A3002 RMK A01 T00541034  RH  053%=      5-min Rain = 0
KCA1 210109Z 15006KT 05/M04 A3002 RMK A01 T00541035  RH  053%=      5-min Rain = 0
KCA1 210110Z 15005KT 06/M03 A3002 RMK A01 T00551034  RH  053%=      5-min Rain = 0
KCA1 210111Z 15006KT 05/M03 A3002 RMK A01 T00541034  RH  053%=      5-min Rain = 0
KCA1 210112Z 15006KT 05/M03 A3002 RMK A01 T00541034  RH  053%=      5-min Rain = 0
KCA1 210113Z 15006KT 05/M03 A3002 RMK A01 T00531034  RH  053%=      5-min Rain = 0
KCA1 210114Z 16007KT 05/M03 A3002 RMK A01 T00531034  RH  053%=      5-min Rain = 0
KCA1 210115Z 16007KT 05/M03 A3002 RMK A01 T00531034  RH  053%=      5-min Rain = 0
KCA1 210116Z 15007KT 05/M03 A3002 RMK A01 T00531034  RH  053%=      5-min Rain = 0
KCA1 210117Z 15007KT 05/M03 A3002 RMK A01 T00531034  RH  054%=      5-min Rain = 0
KCA1 210118Z 15008KT 05/M03 A3002 RMK A01 T00521034  RH  054%=      5-min Rain = 0
KCA1 210119Z 15007KT 05/M03 A3002 RMK A01 T00521034  RH  054%=      5-min Rain = 0
KCA1 210120Z 15006KT 05/M03 A3002 RMK A01 T00521034  RH  054%=      5-min Rain = 0
KCA1 210121Z 15005KT 05/M03 A3002 RMK A01 T00521034  RH  054%=      5-min Rain = 0
KCA1 210122Z 14006KT 05/M03 A3002 RMK A01 T00511034  RH  054%=      5-min Rain = 0
KCA1 210123Z 15006KT 05/M04 A3002 RMK A01 T00501035  RH  054%=      5-min Rain = 0
KCA1 210124Z 14007KT 05/M04 A3002 RMK A01 T00501035  RH  054%=      5-min Rain = 0
KCA1 210125Z 15008KT 05/M04 A3002 RMK A01 T00491035  RH  055%=      5-min Rain = 0
KCA1 210126Z 14007KT 05/M04 A3002 RMK A01 T00491035  RH  055%=      5-min Rain = 0
KCA1 210127Z 14007KT 05/M04 A3002 RMK A01 T00491035  RH  055%=      5-min Rain = 0
KCA1 210128Z 15008KT 05/M04 A3002 RMK A01 T00491035  RH  054%=      5-min Rain = 0
KCA1 210129Z 14008KT 05/M04 A3002 RMK A01 T00501035  RH  054%=      5-min Rain = 0
KCA1 210130Z 15008KT 05/M04 A3002 RMK A01 T00501035  RH  054%=      5-min Rain = 0
KCA1 210131Z 15007KT 05/M04 A3002 RMK A01 T00501035  RH  054%=      5-min Rain = 0
KCA1 210132Z 15007KT 05/M04 A3002 RMK A01 T00501035  RH  054%=      5-min Rain = 0
KCA1 210133Z 16008KT 05/M04 A3002 RMK A01 T00491035  RH  054%=      5-min Rain = 0
KCA1 210134Z 16007KT 05/M04 A3002 RMK A01 T00491035  RH  054%=      5-min Rain = 0
KCA1 210135Z 16009KT 05/M04 A3002 RMK A01 T00491035  RH  055%=      5-min Rain = 0
KCA1 210136Z 16008KT 05/M04 A3002 RMK A01 T00491035  RH  055%=      5-min Rain = 0
KCA1 210137Z 16008KT 05/M04 A3002 RMK A01 T00491035  RH  055%=      5-min Rain = 0
KCA1 210138Z 16007KT 05/M04 A3002 RMK A01 T00481036  RH  055%=      5-min Rain = 0
KCA1 210139Z 16009KT 05/M04 A3002 RMK A01 T00481036  RH  055%=      5-min Rain = 0
KCA1 210140Z 17012KT 05/M04 A3002 RMK A01 T00481036  RH  055%=      5-min Rain = 0
KCA1 210141Z 16008KT 05/M04 A3002 RMK A01 T00481036  RH  055%=      5-min Rain = 0
KCA1 210142Z 16007KT 05/M04 A3002 RMK A01 T00481036  RH  054%=      5-min Rain = 0
KCA1 210143Z 16008KT 05/M04 A3002 RMK A01 T00471036  RH  055%=      5-min Rain = 0
KCA1 210144Z 16009KT 05/M04 A3002 RMK A01 T00471036  RH  055%=      5-min Rain = 0
KCA1 210145Z 16008KT 05/M04 A3002 RMK A01 T00461036  RH  055%=      5-min Rain = 0
KCA1 210146Z 16008KT 05/M04 A3002 RMK A01 T00461036  RH  055%=      5-min Rain = 0
KCA1 210147Z 16008KT 05/M04 A3002 RMK A01 T00451036  RH  056%=      5-min Rain = 0
KCA1 210148Z 16008KT 05/M04 A3002 RMK A01 T00451036  RH  056%=      5-min Rain = 0
KCA1 210149Z 16009KT 05/M04 A3002 RMK A01 T00451036  RH  056%=      5-min Rain = 0
KCA1 210150Z 15007KT 05/M04 A3002 RMK A01 T00451036  RH  056%=      5-min Rain = 0
KCA1 210151Z 16008KT 05/M04 A3002 RMK A01 T00451036  RH  056%=      5-min Rain = 0
KCA1 210152Z 16009KT 04/M04 A3002 RMK A01 T00441037  RH  056%=      5-min Rain = 0
KCA1 210153Z 15008KT 04/M04 A3003 RMK A01 T00441036  RH  056%=      5-min Rain = 0
KCA1 210154Z 16008KT 04/M04 A3003 RMK A01 T00431037  RH  056%=      5-min Rain = 0
KCA1 210155Z 15008KT 04/M04 A3003 RMK A01 T00441037  RH  056%=      5-min Rain = 0
KCA1 210156Z 15008KT 04/M04 A3003 RMK A01 T00431037  RH  056%=      5-min Rain = 0
KCA1 210157Z 15008KT 04/M04 A3003 RMK A01 T00431037  RH  056%=      5-min Rain = 0
KCA1 210158Z 16008KT 04/M04 A3003 RMK A01 T00431037  RH  056%=      5-min Rain = 0
KCA1 210159Z 15007KT 04/M04 A3003 RMK A01 T00431037  RH  056%=      5-min Rain = 0
KCA1 210200Z 15007KT 04/M04 A3003 RMK A01 T00431037  RH  056%=      5-min Rain = 0
KCA1 210201Z 15008KT 04/M04 A3003 RMK A01 T00421038  RH  056%=      5-min Rain = 0
KCA1 210202Z 15008KT 04/M04 A3003 RMK A01 T00411038  RH  056%=      5-min Rain = 0
KCA1 210203Z 16009KT 04/M04 A3003 RMK A01 T00401038  RH  057%=      5-min Rain = 0
KCA1 210204Z 16008KT 04/M04 A3003 RMK A01 T00401038  RH  057%=      5-min Rain = 0
KCA1 210205Z 16006KT 04/M04 A3002 RMK A01 T00411038  RH  057%=      5-min Rain = 0
KCA1 210206Z 16007KT 04/M04 A3002 RMK A01 T00401038  RH  057%=      5-min Rain = 0
KCA1 210207Z 16008KT 04/M04 A3002 RMK A01 T00391038  RH  057%=      5-min Rain = 0
KCA1 210208Z 15008KT 04/M04 A3002 RMK A01 T00391038  RH  057%=      5-min Rain = 0
KCA1 210209Z 15008KT 04/M04 A3002 RMK A01 T00381038  RH  057%=      5-min Rain = 0
KCA1 210210Z 15009KT 04/M04 A3002 RMK A01 T00381038  RH  057%=      5-min Rain = 0
KCA1 210211Z 15009KT 04/M04 A3002 RMK A01 T00381038  RH  057%=      5-min Rain = 0
KCA1 210212Z 15008KT 04/M04 A3002 RMK A01 T00391038  RH  057%=      5-min Rain = 0
KCA1 210213Z 15009KT 04/M04 A3002 RMK A01 T00391038  RH  057%=      5-min Rain = 0
KCA1 210214Z 15009KT 04/M04 A3002 RMK A01 T00391038  RH  057%=      5-min Rain = 0
KCA1 210215Z 15010KT 04/M04 A3002 RMK A01 T00381038  RH  057%=      5-min Rain = 0
KCA1 210216Z 15012KT 04/M04 A3002 RMK A01 T00381038  RH  057%=      5-min Rain = 0
KCA1 210217Z 15011KT 04/M04 A3001 RMK A01 T00381038  RH  057%=      5-min Rain = 0
KCA1 210218Z 16008KT 04/M04 A3001 RMK A01 T00391038  RH  057%=      5-min Rain = 0
KCA1 210219Z 15009KT 04/M04 A3001 RMK A01 T00391038  RH  057%=      5-min Rain = 0
KCA1 210220Z 16009KT 04/M04 A3001 RMK A01 T00391038  RH  057%=      5-min Rain = 0
KCA1 210221Z 16008KT 04/M04 A3001 RMK A01 T00381038  RH  058%=      5-min Rain = 0
KCA1 210222Z 16009KT 04/M04 A3001 RMK A01 T00381038  RH  058%=      5-min Rain = 0
KCA1 210223Z 16009G14KT 04/M04 A3001 RMK A01 T00381038  RH  058%=      5-min Rain = 0
KCA1 210224Z 15009KT 04/M04 A3001 RMK A01 T00381038  RH  057%=      5-min Rain = 0
KCA1 210225Z 15008KT 04/M04 A3001 RMK A01 T00381038  RH  057%=      5-min Rain = 0
KCA1 210226Z 16008KT 04/M04 A3001 RMK A01 T00381038  RH  057%=      5-min Rain = 0
KCA1 210227Z 15009KT 04/M04 A3001 RMK A01 T00371038  RH  058%=      5-min Rain = 0
KCA1 210228Z 15009KT 04/M04 A3001 RMK A01 T00371038  RH  058%=      5-min Rain = 0
KCA1 210229Z 15008KT 04/M04 A3001 RMK A01 T00371038  RH  058%=      5-min Rain = 0
KCA1 210230Z 15007KT 04/M04 A3001 RMK A01 T00361039  RH  058%=      5-min Rain = 0
KCA1 210231Z 15008KT 04/M04 A3001 RMK A01 T00361039  RH  058%=      5-min Rain = 0
KCA1 210232Z 15009KT 04/M04 A3001 RMK A01 T00351039  RH  058%=      5-min Rain = 0
KCA1 210233Z 15007KT 04/M04 A3001 RMK A01 T00351039  RH  058%=      5-min Rain = 0
KCA1 210234Z 15008KT 04/M04 A3001 RMK A01 T00351039  RH  058%=      5-min Rain = 0
KCA1 210235Z 15008KT 04/M04 A3001 RMK A01 T00351039  RH  059%=      5-min Rain = 0
KCA1 210236Z 14009KT 04/M04 A3001 RMK A01 T00351039  RH  059%=      5-min Rain = 0
KCA1 210237Z 14008KT 03/M04 A3001 RMK A01 T00341039  RH  059%=      5-min Rain = 0
KCA1 210238Z 14008KT 04/M04 A3001 RMK A01 T00351039  RH  059%=      5-min Rain = 0
KCA1 210239Z 15006KT 04/M04 A3001 RMK A01 T00351039  RH  059%=      5-min Rain = 0
KCA1 210240Z 14007KT 03/M04 A3001 RMK A01 T00341039  RH  059%=      5-min Rain = 0
KCA1 210241Z 13007KT 03/M04 A3001 RMK A01 T00331039  RH  059%=      5-min Rain = 0
KCA1 210242Z 13007KT 03/M04 A3001 RMK A01 T00341039  RH  059%=      5-min Rain = 0
KCA1 210243Z 13006KT 03/M04 A3001 RMK A01 T00331039  RH  059%=      5-min Rain = 0
KCA1 210244Z 13008KT 03/M04 A3001 RMK A01 T00321039  RH  060%=      5-min Rain = 0
KCA1 210245Z 13007KT 03/M04 A3001 RMK A01 T00321039  RH  060%=      5-min Rain = 0
KCA1 210246Z 13008KT 03/M04 A3001 RMK A01 T00311039  RH  060%=      5-min Rain = 0
KCA1 210247Z 13009KT 03/M04 A3001 RMK A01 T00311038  RH  060%=      5-min Rain = 0
KCA1 210248Z 13007KT 03/M04 A3001 RMK A01 T00321039  RH  060%=      5-min Rain = 0
KCA1 210249Z 13007KT 03/M04 A3001 RMK A01 T00321039  RH  060%=      5-min Rain = 0
KCA1 210250Z 13008KT 03/M04 A3001 RMK A01 T00321039  RH  060%=      5-min Rain = 0
KCA1 210251Z 14007KT 03/M04 A3001 RMK A01 T00321039  RH  060%=      5-min Rain = 0
KCA1 210252Z 14008KT 03/M04 A3001 RMK A01 T00311040  RH  060%=      5-min Rain = 0
KCA1 210253Z 14009KT 03/M04 A3001 RMK A01 T00301039  RH  060%=      5-min Rain = 0
KCA1 210254Z 14007G13KT 03/M04 A3001 RMK A01 T00301039  RH  060%=      5-min Rain = 0
KCA1 210255Z 14009KT 03/M04 A3001 RMK A01 T00301040  RH  060%=      5-min Rain = 0
KCA1 210256Z 14008KT 03/M04 A3001 RMK A01 T00301039  RH  060%=      5-min Rain = 0
KCA1 210257Z 15007KT 03/M04 A3001 RMK A01 T00311039  RH  060%=      5-min Rain = 0
KCA1 210258Z 14009KT 03/M04 A3001 RMK A01 T00311039  RH  060%=      5-min Rain = 0
KCA1 210259Z 14008KT 03/M04 A3001 RMK A01 T00311039  RH  060%=      5-min Rain = 0
KCA1 210300Z 14009KT 03/M04 A3001 RMK A01 T00311040  RH  060%=      5-min Rain = 0
KCA1 210301Z 14009KT 03/M04 A30 RMK A01 T00301040  RH  060%=      5-min Rain = 0
KCA1 210302Z 14013KT 03/M04 A30 RMK A01 T00301039  RH  061%=      5-min Rain = 0
KCA1 210303Z 13009KT 03/M04 A30 RMK A01 T00301039  RH  061%=      5-min Rain = 0
KCA1 210304Z 13009KT 03/M04 A30 RMK A01 T00301039  RH  060%=      5-min Rain = 0
KCA1 210305Z 13008KT 03/M04 A30 RMK A01 T00301039  RH  060%=      5-min Rain = 0
KCA1 210306Z 13008KT 03/M04 A30 RMK A01 T00301039  RH  061%=      5-min Rain = 0
KCA1 210307Z 13008KT 03/M04 A30 RMK A01 T00291039  RH  061%=      5-min Rain = 0
KCA1 210308Z 13007KT 03/M04 A30 RMK A01 T00281039  RH  061%=      5-min Rain = 0
KCA1 210309Z 14008KT 03/M04 A30 RMK A01 T00271040  RH  061%=      5-min Rain = 0
KCA1 210310Z 14007KT 03/M04 A30 RMK A01 T00271040  RH  062%=      5-min Rain = 0
KCA1 210311Z 15008KT 03/M04 A30 RMK A01 T00261040  RH  062%=      5-min Rain = 0
KCA1 210312Z 14007KT 03/M04 A30 RMK A01 T00261039  RH  062%=      5-min Rain = 0
KCA1 210313Z 14008KT 03/M04 A30 RMK A01 T00251039  RH  062%=      5-min Rain = 0
KCA1 210314Z 14008KT 03/M04 A30 RMK A01 T00251039  RH  063%=      5-min Rain = 0
KCA1 210315Z 13009KT 03/M04 A30 RMK A01 T00251039  RH  063%=      5-min Rain = 0
KCA1 210316Z 14008KT 03/M04 A30 RMK A01 T00251039  RH  063%=      5-min Rain = 0
KCA1 210317Z 14011KT 03/M04 A30 RMK A01 T00251039  RH  063%=      5-min Rain = 0
KCA1 210318Z 14008KT 03/M04 A30 RMK A01 T00251038  RH  063%=      5-min Rain = 0
KCA1 210319Z 14008KT 03/M04 A30 RMK A01 T00251039  RH  063%=      5-min Rain = 0
KCA1 210320Z 14006KT 03/M04 A30 RMK A01 T00251039  RH  063%=      5-min Rain = 0
KCA1 210321Z 14007KT 02/M04 A30 RMK A01 T00241039  RH  063%=      5-min Rain = 0
KCA1 210322Z 14008KT 02/M04 A30 RMK A01 T00231039  RH  063%=      5-min Rain = 0
KCA1 210323Z 14009KT 02/M04 A30 RMK A01 T00231039  RH  063%=      5-min Rain = 0
KCA1 210324Z 14008KT 02/M04 A30 RMK A01 T00241038  RH  063%=      5-min Rain = 0
KCA1 210325Z 14006KT 02/M04 A30 RMK A01 T00241038  RH  063%=      5-min Rain = 0
KCA1 210326Z 15006KT 02/M04 A2999 RMK A01 T00241039  RH  063%=      5-min Rain = 0
KCA1 210327Z 14007KT 02/M04 A2999 RMK A01 T00231039  RH  064%=      5-min Rain = 0
KCA1 210328Z 14006KT 02/M04 A2999 RMK A01 T00231039  RH  064%=      5-min Rain = 0
KCA1 210329Z 14007KT 02/M04 A2999 RMK A01 T00231039  RH  064%=      5-min Rain = 0
KCA1 210330Z 14007KT 02/M04 A2999 RMK A01 T00221039  RH  064%=      5-min Rain = 0
KCA1 210331Z 14008KT 02/M04 A2999 RMK A01 T00221038  RH  064%=      5-min Rain = 0
KCA1 210332Z 15006KT 02/M04 A2999 RMK A01 T00221038  RH  064%=      5-min Rain = 0
KCA1 210333Z 14007KT 02/M04 A2999 RMK A01 T00221038  RH  064%=      5-min Rain = 0
KCA1 210334Z 15007KT 02/M04 A2999 RMK A01 T00221038  RH  065%=      5-min Rain = 0
KCA1 210335Z 15007KT 02/M04 A2999 RMK A01 T00221038  RH  065%=      5-min Rain = 0
KCA1 210336Z 15007KT 02/M04 A2999 RMK A01 T00211039  RH  065%=      5-min Rain = 0
KCA1 210337Z 16006KT 02/M04 A2999 RMK A01 T00211039  RH  065%=      5-min Rain = 0
KCA1 210338Z 14007KT 02/M04 A2999 RMK A01 T00211038  RH  065%=      5-min Rain = 0
KCA1 210339Z 15008KT 02/M04 A2999 RMK A01 T00211038  RH  065%=      5-min Rain = 0
KCA1 210340Z 15007KT 02/M04 A2999 RMK A01 T00201038  RH  065%=      5-min Rain = 0
KCA1 210341Z 15007KT 02/M04 A2999 RMK A01 T00201038  RH  065%=      5-min Rain = 0
KCA1 210342Z 15008KT 02/M04 A2999 RMK A01 T00201038  RH  065%=      5-min Rain = 0
KCA1 210343Z 15009KT 02/M04 A2999 RMK A01 T00201038  RH  065%=      5-min Rain = 0
KCA1 210344Z 14011KT 02/M04 A2999 RMK A01 T00211038  RH  065%=      5-min Rain = 0
KCA1 210345Z 15007KT 02/M04 A2999 RMK A01 T00221038  RH  065%=      5-min Rain = 0
KCA1 210346Z 15008KT 02/M04 A2999 RMK A01 T00221037  RH  065%=      5-min Rain = 0
KCA1 210347Z 16010KT 02/M04 A2999 RMK A01 T00221038  RH  065%=      5-min Rain = 0
KCA1 210348Z 15010KT 02/M04 A2999 RMK A01 T00221038  RH  065%=      5-min Rain = 0
KCA1 210349Z 15009KT 02/M04 A2999 RMK A01 T00221038  RH  065%=      5-min Rain = 0
KCA1 210350Z 15008KT 02/M04 A2999 RMK A01 T00221038  RH  065%=      5-min Rain = 0
KCA1 210351Z 15009KT 02/M04 A2999 RMK A01 T00221038  RH  065%=      5-min Rain = 0
KCA1 210352Z 14010KT 02/M04 A2999 RMK A01 T00221038  RH  065%=      5-min Rain = 0
KCA1 210353Z 15009KT 02/M04 A2999 RMK A01 T00221038  RH  065%=      5-min Rain = 0
KCA1 210354Z 15010KT 02/M04 A2999 RMK A01 T00221038  RH  065%=      5-min Rain = 0
KCA1 210355Z 15008KT 02/M04 A2999 RMK A01 T00221038  RH  065%=      5-min Rain = 0
KCA1 210356Z 15007KT 02/M04 A2999 RMK A01 T00221038  RH  065%=      5-min Rain = 0
KCA1 210357Z 15007KT 02/M04 A2999 RMK A01 T00211038  RH  065%=      5-min Rain = 0
KCA1 210358Z 15010KT 02/M04 A2999 RMK A01 T00201038  RH  065%=      5-min Rain = 0
KCA1 210359Z 15010KT 02/M04 A2999 RMK A01 T00211038  RH  065%=      5-min Rain = 0
KCA1 210400Z 14008KT 02/M04 A2999 RMK A01 T00221037  RH  065%=      5-min Rain = 0
KCA1 210401Z 15009KT 02/M04 A2999 RMK A01 T00221038  RH  065%=      5-min Rain = 0
KCA1 210402Z 15010KT 02/M04 A2998 RMK A01 T00221038  RH  065%=      5-min Rain = 0
KCA1 210403Z 15009KT 02/M04 A2998 RMK A01 T00221038  RH  065%=      5-min Rain = 0
KCA1 210404Z 15007KT 02/M04 A2998 RMK A01 T00221038  RH  065%=      5-min Rain = 0
KCA1 210405Z 15006KT 02/M04 A2998 RMK A01 T00211038  RH  065%=      5-min Rain = 0
KCA1 210406Z 15008KT 02/M04 A2998 RMK A01 T00211038  RH  065%=      5-min Rain = 0
KCA1 210407Z 15008KT 02/M04 A2998 RMK A01 T00201038  RH  065%=      5-min Rain = 0
KCA1 210408Z 15007KT 02/M04 A2998 RMK A01 T00211038  RH  065%=      5-min Rain = 0
KCA1 210409Z 15007KT 02/M04 A2998 RMK A01 T00211038  RH  065%=      5-min Rain = 0
KCA1 210410Z 15007KT 02/M04 A2998 RMK A01 T00211038  RH  065%=      5-min Rain = 0
KCA1 210411Z 15009KT 02/M04 A2998 RMK A01 T00211038  RH  065%=      5-min Rain = 0
KCA1 210412Z 14007KT 02/M04 A2998 RMK A01 T00211038  RH  065%=      5-min Rain = 0
KCA1 210413Z 15009KT 02/M04 A2998 RMK A01 T00211038  RH  065%=      5-min Rain = 0
KCA1 210414Z 15008KT 02/M04 A2998 RMK A01 T00211038  RH  065%=      5-min Rain = 0
KCA1 210415Z 14008KT 02/M04 A2998 RMK A01 T00211038  RH  065%=      5-min Rain = 0
KCA1 210416Z 14007KT 02/M04 A2998 RMK A01 T00211038  RH  065%=      5-min Rain = 0
KCA1 210417Z 15007KT 02/M04 A2998 RMK A01 T00211038  RH  065%=      5-min Rain = 0
KCA1 210418Z 15007KT 02/M04 A2998 RMK A01 T00211039  RH  065%=      5-min Rain = 0
KCA1 210419Z 15007KT 02/M04 A2998 RMK A01 T00211038  RH  065%=      5-min Rain = 0
KCA1 210420Z 14007KT 02/M04 A2998 RMK A01 T00211038  RH  065%=      5-min Rain = 0
KCA1 210421Z 14007KT 02/M04 A2998 RMK A01 T00211038  RH  065%=      5-min Rain = 0
KCA1 210422Z 14007KT 02/M04 A2998 RMK A01 T00211038  RH  065%=      5-min Rain = 0
KCA1 210423Z 14007KT 02/M04 A2998 RMK A01 T00221038  RH  065%=      5-min Rain = 0
KCA1 210424Z 14007KT 02/M04 A2998 RMK A01 T00221038  RH  065%=      5-min Rain = 0
KCA1 210425Z 14007KT 02/M04 A2998 RMK A01 T00221038  RH  065%=      5-min Rain = 0
KCA1 210426Z 14007KT 02/M04 A2998 RMK A01 T00221038  RH  065%=      5-min Rain = 0
KCA1 210427Z 14005KT 02/M04 A2998 RMK A01 T00211038  RH  065%=      5-min Rain = 0
KCA1 210428Z 14004KT 02/M04 A2998 RMK A01 T00211038  RH  065%=      5-min Rain = 0
KCA1 210429Z 14006KT 02/M04 A2998 RMK A01 T00211038  RH  065%=      5-min Rain = 0
KCA1 210430Z 14006KT 02/M04 A2999 RMK A01 T00201038  RH  065%=      5-min Rain = 0
KCA1 210431Z 13006KT 02/M04 A2998 RMK A01 T00201038  RH  065%=      5-min Rain = 0
KCA1 210432Z 13006KT 02/M04 A2998 RMK A01 T00201038  RH  065%=      5-min Rain = 0
KCA1 210433Z 13007KT 02/M04 A2998 RMK A01 T00201038  RH  065%=      5-min Rain = 0
KCA1 210434Z 13006KT 02/M04 A2998 RMK A01 T00211038  RH  065%=      5-min Rain = 0
KCA1 210435Z 13005KT 02/M04 A2998 RMK A01 T00211038  RH  065%=      5-min Rain = 0
KCA1 210436Z 14008KT 02/M04 A2998 RMK A01 T00211038  RH  065%=      5-min Rain = 0
KCA1 210437Z 14007KT 02/M04 A2998 RMK A01 T00211038  RH  065%=      5-min Rain = 0
KCA1 210438Z 14007KT 02/M04 A2998 RMK A01 T00211038  RH  065%=      5-min Rain = 0
KCA1 210439Z 14007KT 02/M04 A2998 RMK A01 T00211038  RH  065%=      5-min Rain = 0
KCA1 210440Z 14006KT 02/M04 A2998 RMK A01 T00211038  RH  065%=      5-min Rain = 0
KCA1 210441Z 15008KT 02/M04 A2998 RMK A01 T00211038  RH  065%=      5-min Rain = 0
KCA1 210442Z 14008KT 02/M04 A2998 RMK A01 T00211038  RH  065%=      5-min Rain = 0
KCA1 210443Z 14008KT 02/M04 A2998 RMK A01 T00211038  RH  065%=      5-min Rain = 0
KCA1 210444Z 14007KT 02/M04 A2998 RMK A01 T00211038  RH  065%=      5-min Rain = 0
KCA1 210445Z 14008KT 02/M04 A2998 RMK A01 T00211038  RH  065%=      5-min Rain = 0
KCA1 210446Z 14009KT 02/M04 A2998 RMK A01 T00211038  RH  065%=      5-min Rain = 0
KCA1 210447Z 14010KT 02/M04 A2998 RMK A01 T00211038  RH  065%=      5-min Rain = 0
KCA1 210448Z 15012KT 02/M04 A2998 RMK A01 T00211038  RH  065%=      5-min Rain = 0
KCA1 210449Z 14010KT 02/M04 A2998 RMK A01 T00221038  RH  065%=      5-min Rain = 0
KCA1 210450Z 14008KT 02/M04 A2998 RMK A01 T00221038  RH  065%=      5-min Rain = 0
KCA1 210451Z 14010KT 02/M04 A2998 RMK A01 T00221038  RH  065%=      5-min Rain = 0
KCA1 210452Z 15007KT 02/M04 A2998 RMK A01 T00221038  RH  065%=      5-min Rain = 0
KCA1 210453Z 14009KT 02/M04 A2998 RMK A01 T00221038  RH  065%=      5-min Rain = 0
KCA1 210454Z 14010KT 02/M04 A2998 RMK A01 T00221038  RH  065%=      5-min Rain = 0
KCA1 210455Z 14009KT 02/M04 A2998 RMK A01 T00221038  RH  065%=      5-min Rain = 0
KCA1 210456Z 14010KT 02/M04 A2998 RMK A01 T00231037  RH  064%=      5-min Rain = 0
KCA1 210457Z 14010KT 02/M04 A2998 RMK A01 T00231037  RH  064%=      5-min Rain = 0
KCA1 210458Z 14010KT 02/M04 A2998 RMK A01 T00231037  RH  064%=      5-min Rain = 0
KCA1 210459Z 14010KT 02/M04 A2998 RMK A01 T00231038  RH  064%=      5-min Rain = 0
KCA1 210500Z 14010KT 02/M04 A2998 RMK A01 T00231038  RH  064%=      5-min Rain = 0
KCA1 210501Z 14011KT 02/M04 A2998 RMK A01 T00241038  RH  064%=      5-min Rain = 0
KCA1 210502Z 14009KT 02/M04 A2998 RMK A01 T00241038  RH  064%=      5-min Rain = 0
KCA1 210503Z 14009KT 02/M04 A2998 RMK A01 T00241038  RH  064%=      5-min Rain = 0
KCA1 210504Z 14008KT 02/M04 A2998 RMK A01 T00241038  RH  064%=      5-min Rain = 0
KCA1 210505Z 14010KT 02/M04 A2998 RMK A01 T00241038  RH  064%=      5-min Rain = 0
KCA1 210506Z 14011KT 02/M04 A2998 RMK A01 T00231038  RH  064%=      5-min Rain = 0
KCA1 210507Z 14010KT 02/M04 A2998 RMK A01 T00241038  RH  064%=      5-min Rain = 0
KCA1 210508Z 14009G15KT 02/M04 A2998 RMK A01 T00241038  RH  063%=      5-min Rain = 0
KCA1 210509Z 14010KT 02/M04 A2998 RMK A01 T00241039  RH  063%=      5-min Rain = 0
KCA1 210510Z 14011KT 02/M04 A2998 RMK A01 T00241038  RH  063%=      5-min Rain = 0
KCA1 210511Z 14010KT 02/M04 A2998 RMK A01 T00241039  RH  063%=      5-min Rain = 0
KCA1 210512Z 13009KT 03/M04 A2998 RMK A01 T00251038  RH  063%=      5-min Rain = 0
KCA1 210513Z 14009KT 02/M04 A2998 RMK A01 T00241038  RH  063%=      5-min Rain = 0
KCA1 210514Z 14009KT 02/M04 A2998 RMK A01 T00231039  RH  063%=      5-min Rain = 0
KCA1 210515Z 14009KT 02/M04 A2998 RMK A01 T00231039  RH  064%=      5-min Rain = 0
KCA1 210516Z 14009KT 02/M04 A2998 RMK A01 T00231039  RH  064%=      5-min Rain = 0
KCA1 210517Z 14009KT 02/M04 A2998 RMK A01 T00231039  RH  064%=      5-min Rain = 0
KCA1 210518Z 14010KT 02/M04 A2998 RMK A01 T00231039  RH  064%=      5-min Rain = 0
KCA1 210519Z 14009KT 02/M04 A2998 RMK A01 T00231039  RH  064%=      5-min Rain = 0
KCA1 210520Z 13010KT 02/M04 A2998 RMK A01 T00231039  RH  064%=      5-min Rain = 0
KCA1 210521Z 14009KT 02/M04 A2998 RMK A01 T00221039  RH  064%=      5-min Rain = 0
KCA1 210522Z 14009KT 02/M04 A2998 RMK A01 T00221039  RH  064%=      5-min Rain = 0
KCA1 210523Z 14009KT 02/M04 A2998 RMK A01 T00221039  RH  064%=      5-min Rain = 0
KCA1 210524Z 14010KT 02/M04 A2998 RMK A01 T00221039  RH  064%=      5-min Rain = 0
KCA1 210525Z 14011KT 02/M04 A2997 RMK A01 T00221040  RH  064%=      5-min Rain = 0
KCA1 210526Z 14011KT 02/M04 A2997 RMK A01 T00221040  RH  064%=      5-min Rain = 0
KCA1 210527Z 14012KT 02/M04 A2997 RMK A01 T00231040  RH  063%=      5-min Rain = 0
KCA1 210528Z 14010KT 02/M04 A2997 RMK A01 T00241040  RH  063%=      5-min Rain = 0
KCA1 210529Z 15009KT 02/M04 A2997 RMK A01 T00231040  RH  063%=      5-min Rain = 0
KCA1 210530Z 14011KT 02/M04 A2997 RMK A01 T00241040  RH  063%=      5-min Rain = 0
KCA1 210531Z 14010KT 02/M04 A2997 RMK A01 T00231040  RH  063%=      5-min Rain = 0
KCA1 210532Z 14010KT 02/M04 A2997 RMK A01 T00241040  RH  063%=      5-min Rain = 0
KCA1 210533Z 14010KT 02/M04 A2997 RMK A01 T00241040  RH  063%=      5-min Rain = 0
KCA1 210534Z 14010KT 02/M04 A2997 RMK A01 T00231041  RH  063%=      5-min Rain = 0
KCA1 210535Z 14010G15KT 02/M04 A2997 RMK A01 T00231041  RH  063%=      5-min Rain = 0
KCA1 210536Z 13010KT 02/M04 A2997 RMK A01 T00231041  RH  063%=      5-min Rain = 0
KCA1 210537Z 13010KT 02/M04 A2997 RMK A01 T00221041  RH  063%=      5-min Rain = 0
KCA1 210538Z 13009KT 02/M04 A2997 RMK A01 T00211041  RH  064%=      5-min Rain = 0
KCA1 210539Z 14009KT 02/M04 A2997 RMK A01 T00211041  RH  064%=      5-min Rain = 0
KCA1 210540Z 13010KT 02/M04 A2997 RMK A01 T00201041  RH  064%=      5-min Rain = 0
KCA1 210541Z 13009KT 02/M04 A2997 RMK A01 T00201041  RH  064%=      5-min Rain = 0
KCA1 210542Z 13011KT 02/M04 A2997 RMK A01 T00191041  RH  064%=      5-min Rain = 0
KCA1 210543Z 13010KT 02/M04 A2997 RMK A01 T00191041  RH  064%=      5-min Rain = 0
KCA1 210544Z 13010KT 02/M04 A2997 RMK A01 T00191041  RH  065%=      5-min Rain = 0
KCA1 210545Z 13009KT 02/M04 A2997 RMK A01 T00181041  RH  065%=      5-min Rain = 0
KCA1 210546Z 13008KT 02/M04 A2997 RMK A01 T00181041  RH  065%=      5-min Rain = 0
KCA1 210547Z 13010KT 02/M04 A2997 RMK A01 T00171041  RH  065%=      5-min Rain = 0
KCA1 210548Z 13012KT 02/M04 A2997 RMK A01 T00171041  RH  066%=      5-min Rain = 0
KCA1 210549Z 13011KT 02/M04 A2997 RMK A01 T00171041  RH  065%=      5-min Rain = 0
KCA1 210550Z 13008KT 02/M04 A2997 RMK A01 T00171041  RH  065%=      5-min Rain = 0
KCA1 210551Z 13010KT 02/M04 A2997 RMK A01 T00171041  RH  065%=      5-min Rain = 0
KCA1 210552Z 13009KT 02/M04 A2997 RMK A01 T00171041  RH  065%=      5-min Rain = 0
KCA1 210553Z 13009KT 02/M04 A2996 RMK A01 T00171041  RH  065%=      5-min Rain = 0
KCA1 210554Z 13010KT 02/M04 A2996 RMK A01 T00171041  RH  065%=      5-min Rain = 0
KCA1 210555Z 13010KT 02/M04 A2996 RMK A01 T00171041  RH  065%=      5-min Rain = 0
KCA1 210556Z 13010KT 02/M04 A2996 RMK A01 T00171041  RH  065%=      5-min Rain = 0
KCA1 210557Z 13009KT 02/M04 A2996 RMK A01 T00171042  RH  065%=      5-min Rain = 0
KCA1 210558Z 13008KT 02/M04 A2996 RMK A01 T00171042  RH  065%=      5-min Rain = 0
KCA1 210559Z 13010KT 02/M04 A2996 RMK A01 T00171042  RH  065%=      5-min Rain = 0

Page generated in 0.0778 seconds.